EAG5512 SKBO-GOBD
Flight info
| Callsign | EAG5512 |
|---|---|
| Flight time | 7h 18m |
| Altitude | 35000 |
| Route | MAVDA UW20 AUC DCT MIQ UN669 ELJEZ/M083F350 DCT 2150N DCT 2340N DCT 22N036W DCT ERNEK/N0490F350 DCT EVKAS DCT BVT DCT MOGSA DCT PIVSA |
| Aircraft | A346/H-SDE2E3FGHIJ3J4J5M1RWXY/LB1D1 |
Departure
| Time | 2026-04-25 11:30 |
|---|---|
| Airport | El Dorado International Airport (SKBO) |
Arrival
| Time | 2026-04-25 18:48 |
|---|---|
| Airport | Blaise Diagne International Airport (GOBD) |
| Time | Latitude | Longitude | Altitude | Speed | Heading |
|---|---|---|---|---|---|
| 2026-04-25 10:20 | 4.70168 | -74.14429 | 8379 ft | 0 kts | 128° |
| 2026-04-25 11:11 | 4.70174 | -74.14437 | 8381 ft | 4 kts | 124° |
| 2026-04-25 11:11 | 4.70183 | -74.14450 | 8381 ft | 2 kts | 127° |
| 2026-04-25 11:12 | 4.70193 | -74.14466 | 8381 ft | 4 kts | 99° |
| 2026-04-25 11:12 | 4.70190 | -74.14483 | 8380 ft | 4 kts | 60° |
| 2026-04-25 11:12 | 4.70174 | -74.14502 | 8381 ft | 4 kts | 40° |
| 2026-04-25 11:12 | 4.70165 | -74.14509 | 8381 ft | 2 kts | 37° |
| 2026-04-25 11:13 | 4.70167 | -74.14508 | 8381 ft | 0 kts | 37° |
| 2026-04-25 11:17 | 4.70169 | -74.14506 | 8381 ft | 1 kts | 37° |
| 2026-04-25 11:18 | 4.70189 | -74.14493 | 8379 ft | 2 kts | 29° |
| 2026-04-25 11:18 | 4.70198 | -74.14489 | 8381 ft | 1 kts | 21° |
| 2026-04-25 11:18 | 4.70226 | -74.14486 | 8381 ft | 8 kts | 348° |
| 2026-04-25 11:18 | 4.70280 | -74.14517 | 8381 ft | 9 kts | 318° |
| 2026-04-25 11:19 | 4.70306 | -74.14570 | 8381 ft | 8 kts | 269° |
| 2026-04-25 11:19 | 4.70280 | -74.14621 | 8381 ft | 8 kts | 227° |
| 2026-04-25 11:19 | 4.70236 | -74.14658 | 8381 ft | 8 kts | 218° |
| 2026-04-25 11:19 | 4.70192 | -74.14691 | 8381 ft | 8 kts | 217° |
| 2026-04-25 11:20 | 4.70134 | -74.14735 | 8381 ft | 12 kts | 217° |
| 2026-04-25 11:20 | 4.70069 | -74.14784 | 8379 ft | 12 kts | 217° |
| 2026-04-25 11:20 | 4.70004 | -74.14833 | 8381 ft | 12 kts | 217° |
| 2026-04-25 11:20 | 4.69939 | -74.14882 | 8381 ft | 12 kts | 217° |
| 2026-04-25 11:21 | 4.69880 | -74.14935 | 8379 ft | 11 kts | 241° |
| 2026-04-25 11:21 | 4.69888 | -74.15009 | 8381 ft | 11 kts | 298° |
| 2026-04-25 11:21 | 4.69932 | -74.15076 | 8380 ft | 12 kts | 306° |
| 2026-04-25 11:21 | 4.69990 | -74.15153 | 8381 ft | 15 kts | 307° |
| 2026-04-25 11:22 | 4.70052 | -74.15234 | 8381 ft | 14 kts | 307° |
| 2026-04-25 11:22 | 4.70091 | -74.15287 | 8380 ft | 14 kts | 307° |
| 2026-04-25 11:22 | 4.70170 | -74.15390 | 8381 ft | 14 kts | 307° |
| 2026-04-25 11:22 | 4.70226 | -74.15464 | 8381 ft | 13 kts | 307° |
| 2026-04-25 11:23 | 4.70282 | -74.15539 | 8381 ft | 15 kts | 307° |
| 2026-04-25 11:23 | 4.70351 | -74.15629 | 8381 ft | 16 kts | 307° |
| 2026-04-25 11:23 | 4.70419 | -74.15720 | 8381 ft | 16 kts | 307° |
| 2026-04-25 11:23 | 4.70492 | -74.15817 | 8380 ft | 18 kts | 307° |
| 2026-04-25 11:24 | 4.70568 | -74.15917 | 8381 ft | 18 kts | 307° |
| 2026-04-25 11:24 | 4.70645 | -74.16018 | 8381 ft | 18 kts | 307° |
| 2026-04-25 11:24 | 4.70722 | -74.16120 | 8382 ft | 18 kts | 308° |
| 2026-04-25 11:24 | 4.70800 | -74.16222 | 8380 ft | 19 kts | 307° |
| 2026-04-25 11:25 | 4.70874 | -74.16324 | 8382 ft | 18 kts | 307° |
| 2026-04-25 11:25 | 4.70951 | -74.16420 | 8380 ft | 14 kts | 309° |
| 2026-04-25 11:25 | 4.71010 | -74.16495 | 8381 ft | 14 kts | 304° |
| 2026-04-25 11:25 | 4.71064 | -74.16572 | 8381 ft | 13 kts | 306° |
| 2026-04-25 11:26 | 4.71118 | -74.16644 | 8381 ft | 13 kts | 308° |
| 2026-04-25 11:26 | 4.71172 | -74.16714 | 8381 ft | 12 kts | 308° |
| 2026-04-25 11:26 | 4.71181 | -74.16726 | 8381 ft | 0 kts | 307° |
| 2026-04-25 11:27 | 4.71186 | -74.16733 | 8380 ft | 7 kts | 307° |
| 2026-04-25 11:27 | 4.71189 | -74.16807 | 8381 ft | 13 kts | 230° |
| 2026-04-25 11:27 | 4.71119 | -74.16863 | 8380 ft | 13 kts | 213° |
| 2026-04-25 11:27 | 4.71086 | -74.16884 | 8381 ft | 3 kts | 209° |
| 2026-04-25 11:28 | 4.71069 | -74.16893 | 8379 ft | 1 kts | 198° |
| 2026-04-25 11:28 | 4.71046 | -74.16889 | 8381 ft | 2 kts | 141° |
| 2026-04-25 11:28 | 4.71032 | -74.16877 | 8381 ft | 4 kts | 136° |
| 2026-04-25 11:28 | 4.71010 | -74.16853 | 8381 ft | 22 kts | 131° |
| 2026-04-25 11:29 | 4.70769 | -74.16538 | 8380 ft | 90 kts | 127° |
| 2026-04-25 11:29 | 4.70262 | -74.15869 | 8381 ft | 149 kts | 127° |
| 2026-04-25 11:29 | 4.69529 | -74.14905 | 8380 ft | 197 kts | 126° |
| 2026-04-25 11:29 | 4.68656 | -74.13757 | 8716 ft | 212 kts | 127° |
| 2026-04-25 11:30 | 4.67708 | -74.12519 | 9059 ft | 236 kts | 131° |
| 2026-04-25 11:30 | 4.66263 | -74.11583 | 9281 ft | 265 kts | 166° |
| 2026-04-25 11:30 | 4.64344 | -74.11665 | 9493 ft | 295 kts | 201° |
| 2026-04-25 11:30 | 4.62588 | -74.12864 | 9753 ft | 323 kts | 231° |
| 2026-04-25 11:31 | 4.61539 | -74.14941 | 10022 ft | 347 kts | 258° |
| 2026-04-25 11:31 | 4.61484 | -74.17365 | 10730 ft | 345 kts | 274° |
| 2026-04-25 11:31 | 4.61483 | -74.19735 | 11774 ft | 334 kts | 265° |
| 2026-04-25 11:31 | 4.61208 | -74.22007 | 12791 ft | 323 kts | 262° |
| 2026-04-25 11:32 | 4.60870 | -74.24200 | 13755 ft | 313 kts | 261° |
| 2026-04-25 11:32 | 4.60398 | -74.26324 | 14464 ft | 311 kts | 250° |
| 2026-04-25 11:32 | 4.59372 | -74.28249 | 14952 ft | 315 kts | 232° |
| 2026-04-25 11:32 | 4.57920 | -74.29872 | 15428 ft | 319 kts | 226° |
| 2026-04-25 11:33 | 4.56346 | -74.31456 | 15887 ft | 322 kts | 225° |
| 2026-04-25 11:33 | 4.54752 | -74.33059 | 16370 ft | 325 kts | 226° |
| 2026-04-25 11:33 | 4.53155 | -74.34682 | 16841 ft | 328 kts | 225° |
| 2026-04-25 11:33 | 4.51439 | -74.36226 | 17161 ft | 337 kts | 219° |
| 2026-04-25 11:34 | 4.49486 | -74.37616 | 17369 ft | 349 kts | 212° |
| 2026-04-25 11:34 | 4.47316 | -74.38798 | 17577 ft | 360 kts | 205° |
| 2026-04-25 11:34 | 4.45012 | -74.39800 | 17783 ft | 371 kts | 204° |
| 2026-04-25 11:34 | 4.42662 | -74.40959 | 17978 ft | 382 kts | 209° |
| 2026-04-25 11:35 | 4.40317 | -74.42287 | 18181 ft | 392 kts | 211° |
| 2026-04-25 11:35 | 4.37903 | -74.43643 | 18350 ft | 402 kts | 205° |
| 2026-04-25 11:35 | 4.35182 | -74.44398 | 18498 ft | 413 kts | 186° |
| 2026-04-25 11:35 | 4.32295 | -74.44243 | 18662 ft | 422 kts | 167° |
| 2026-04-25 11:36 | 4.29539 | -74.43151 | 18836 ft | 431 kts | 148° |
| 2026-04-25 11:36 | 4.27245 | -74.41202 | 19057 ft | 436 kts | 130° |
| 2026-04-25 11:36 | 4.25653 | -74.38658 | 19421 ft | 438 kts | 112° |
| 2026-04-25 11:36 | 4.24901 | -74.35663 | 19810 ft | 438 kts | 94° |
| 2026-04-25 11:37 | 4.25114 | -74.32659 | 20191 ft | 439 kts | 76° |
| 2026-04-25 11:37 | 4.26258 | -74.29822 | 20550 ft | 440 kts | 58° |
| 2026-04-25 11:37 | 4.28097 | -74.27366 | 20951 ft | 441 kts | 51° |
| 2026-04-25 11:37 | 4.30035 | -74.24962 | 21312 ft | 444 kts | 51° |
| 2026-04-25 11:38 | 4.31987 | -74.22537 | 21643 ft | 447 kts | 51° |
| 2026-04-25 11:38 | 4.33944 | -74.20094 | 21987 ft | 450 kts | 51° |
| 2026-04-25 11:38 | 4.35910 | -74.17630 | 22336 ft | 452 kts | 51° |
| 2026-04-25 11:38 | 4.37876 | -74.15159 | 22683 ft | 455 kts | 51° |
| 2026-04-25 11:39 | 4.39851 | -74.12671 | 23002 ft | 457 kts | 51° |
| 2026-04-25 11:39 | 4.41836 | -74.10170 | 23338 ft | 459 kts | 51° |
| 2026-04-25 11:39 | 4.43801 | -74.07691 | 23648 ft | 461 kts | 51° |
| 2026-04-25 11:39 | 4.45804 | -74.05164 | 23956 ft | 463 kts | 51° |
| 2026-04-25 11:40 | 4.47813 | -74.02629 | 24242 ft | 466 kts | 51° |
| 2026-04-25 11:40 | 4.49831 | -74.00082 | 24280 ft | 466 kts | 52° |
| 2026-04-25 11:40 | 4.51871 | -73.97505 | 24286 ft | 465 kts | 52° |
| 2026-04-25 11:40 | 4.53887 | -73.94958 | 24339 ft | 469 kts | 52° |
| 2026-04-25 11:41 | 4.55923 | -73.92385 | 24639 ft | 470 kts | 52° |
| 2026-04-25 11:41 | 4.57966 | -73.89805 | 24997 ft | 471 kts | 52° |
| 2026-04-25 11:41 | 4.60002 | -73.87235 | 25318 ft | 472 kts | 52° |
| 2026-04-25 11:41 | 4.62053 | -73.84644 | 25608 ft | 474 kts | 52° |
| 2026-04-25 11:42 | 4.64109 | -73.82046 | 25896 ft | 476 kts | 52° |
| 2026-04-25 11:42 | 4.66176 | -73.79434 | 26185 ft | 478 kts | 52° |
| 2026-04-25 11:42 | 4.68251 | -73.76812 | 26444 ft | 480 kts | 52° |
| 2026-04-25 11:42 | 4.70329 | -73.74186 | 26720 ft | 482 kts | 52° |
| 2026-04-25 11:43 | 4.72393 | -73.71578 | 26997 ft | 483 kts | 52° |
| 2026-04-25 11:43 | 4.74492 | -73.68924 | 27270 ft | 485 kts | 52° |
| 2026-04-25 11:43 | 4.76598 | -73.66261 | 27537 ft | 487 kts | 53° |
| 2026-04-25 11:43 | 4.78708 | -73.63594 | 27784 ft | 488 kts | 53° |
| 2026-04-25 11:44 | 4.80823 | -73.60918 | 28034 ft | 490 kts | 53° |
| 2026-04-25 11:44 | 4.82950 | -73.58228 | 28284 ft | 492 kts | 53° |
| 2026-04-25 11:44 | 4.85084 | -73.55530 | 28545 ft | 493 kts | 53° |
| 2026-04-25 11:44 | 4.87213 | -73.52837 | 28907 ft | 492 kts | 53° |
| 2026-04-25 11:45 | 4.89316 | -73.50179 | 29296 ft | 490 kts | 53° |
| 2026-04-25 11:45 | 4.91431 | -73.47503 | 29678 ft | 489 kts | 53° |
| 2026-04-25 11:45 | 4.93547 | -73.44825 | 30058 ft | 488 kts | 53° |
| 2026-04-25 11:45 | 4.95655 | -73.42159 | 30408 ft | 487 kts | 53° |
| 2026-04-25 11:46 | 4.97760 | -73.39492 | 30732 ft | 486 kts | 53° |
| 2026-04-25 11:46 | 4.99861 | -73.36831 | 31066 ft | 486 kts | 54° |
| 2026-04-25 11:46 | 5.01955 | -73.34180 | 31386 ft | 485 kts | 54° |
| 2026-04-25 11:46 | 5.04051 | -73.31524 | 31716 ft | 484 kts | 54° |
| 2026-04-25 11:47 | 5.06141 | -73.28879 | 32037 ft | 483 kts | 54° |
| 2026-04-25 11:47 | 5.08223 | -73.26242 | 32346 ft | 482 kts | 54° |
| 2026-04-25 11:47 | 5.10305 | -73.23603 | 32665 ft | 481 kts | 54° |
| 2026-04-25 11:47 | 5.12381 | -73.20975 | 32958 ft | 480 kts | 54° |
| 2026-04-25 11:48 | 5.14451 | -73.18352 | 33269 ft | 479 kts | 54° |
| 2026-04-25 11:48 | 5.16523 | -73.15725 | 33541 ft | 479 kts | 54° |
| 2026-04-25 11:48 | 5.18592 | -73.13100 | 33759 ft | 479 kts | 54° |
| 2026-04-25 11:48 | 5.20668 | -73.10469 | 33992 ft | 480 kts | 54° |
| 2026-04-25 11:49 | 5.22714 | -73.07875 | 34225 ft | 481 kts | 54° |
| 2026-04-25 11:49 | 5.24793 | -73.05239 | 34412 ft | 482 kts | 54° |
| 2026-04-25 11:49 | 5.26874 | -73.02600 | 34615 ft | 483 kts | 54° |
| 2026-04-25 11:49 | 5.28991 | -72.99916 | 34800 ft | 483 kts | 54° |
| 2026-04-25 11:50 | 5.31083 | -72.97263 | 35012 ft | 484 kts | 54° |
| 2026-04-25 11:50 | 5.33180 | -72.94604 | 35060 ft | 487 kts | 54° |
| 2026-04-25 11:50 | 5.37435 | -72.89202 | 35058 ft | 497 kts | 54° |
| 2026-04-25 11:51 | 5.41744 | -72.83735 | 35040 ft | 499 kts | 54° |
| 2026-04-25 11:51 | 5.46038 | -72.78288 | 35026 ft | 500 kts | 54° |
| 2026-04-25 11:52 | 5.50358 | -72.72806 | 35025 ft | 500 kts | 54° |
| 2026-04-25 11:52 | 5.54680 | -72.67319 | 35017 ft | 500 kts | 54° |
| 2026-04-25 11:53 | 5.58998 | -72.61834 | 35016 ft | 500 kts | 54° |
| 2026-04-25 11:53 | 5.63318 | -72.56348 | 35009 ft | 500 kts | 54° |
| 2026-04-25 11:54 | 5.67640 | -72.50855 | 35010 ft | 501 kts | 54° |
| 2026-04-25 11:55 | 5.74129 | -72.42605 | 35003 ft | 501 kts | 54° |
| 2026-04-25 11:55 | 5.78456 | -72.37103 | 35011 ft | 501 kts | 54° |
| 2026-04-25 11:56 | 5.82757 | -72.31634 | 35002 ft | 501 kts | 54° |
| 2026-04-25 11:56 | 5.87088 | -72.26125 | 35001 ft | 501 kts | 54° |
| 2026-04-25 11:57 | 5.91412 | -72.20621 | 34985 ft | 502 kts | 54° |
| 2026-04-25 11:57 | 5.95014 | -72.16035 | 34985 ft | 502 kts | 54° |
| 2026-04-25 11:58 | 5.99343 | -72.10523 | 34983 ft | 502 kts | 54° |
| 2026-04-25 11:58 | 6.04368 | -72.04122 | 34985 ft | 502 kts | 54° |
| 2026-04-25 11:59 | 6.08687 | -71.98619 | 34975 ft | 502 kts | 54° |
| 2026-04-25 11:59 | 6.13014 | -71.93105 | 34975 ft | 502 kts | 54° |
| 2026-04-25 12:00 | 6.18771 | -71.85766 | 34966 ft | 502 kts | 54° |
| 2026-04-25 12:01 | 6.25261 | -71.77489 | 34961 ft | 502 kts | 54° |
| 2026-04-25 12:01 | 6.29595 | -71.71957 | 34956 ft | 502 kts | 54° |
| 2026-04-25 12:02 | 6.36094 | -71.63662 | 34957 ft | 503 kts | 54° |
| 2026-04-25 12:02 | 6.40432 | -71.58123 | 34955 ft | 503 kts | 54° |
| 2026-04-25 12:03 | 6.44740 | -71.52621 | 34955 ft | 504 kts | 54° |
| 2026-04-25 12:03 | 6.49084 | -71.47071 | 34955 ft | 504 kts | 54° |
| 2026-04-25 12:04 | 6.53431 | -71.41518 | 34955 ft | 505 kts | 54° |
| 2026-04-25 12:04 | 6.57784 | -71.35955 | 34946 ft | 505 kts | 54° |
| 2026-04-25 12:05 | 6.62127 | -71.30393 | 34948 ft | 504 kts | 54° |
| 2026-04-25 12:05 | 6.66469 | -71.24842 | 34949 ft | 504 kts | 54° |
| 2026-04-25 12:06 | 6.70814 | -71.19286 | 34948 ft | 505 kts | 54° |
| 2026-04-25 12:06 | 6.75162 | -71.13721 | 34935 ft | 505 kts | 54° |
| 2026-04-25 12:07 | 6.79510 | -71.08154 | 34936 ft | 505 kts | 54° |
| 2026-04-25 12:07 | 6.83855 | -71.02588 | 34935 ft | 506 kts | 54° |
| 2026-04-25 12:08 | 6.88175 | -70.97051 | 34935 ft | 506 kts | 54° |
| 2026-04-25 12:08 | 6.92536 | -70.91463 | 34935 ft | 506 kts | 54° |
| 2026-04-25 12:09 | 6.96890 | -70.85880 | 34935 ft | 507 kts | 54° |
| 2026-04-25 12:09 | 7.01249 | -70.80289 | 34938 ft | 507 kts | 54° |
| 2026-04-25 12:10 | 7.05630 | -70.74707 | 34929 ft | 508 kts | 52° |
| 2026-04-25 12:10 | 7.10354 | -70.69456 | 34929 ft | 509 kts | 48° |
| 2026-04-25 12:11 | 7.15290 | -70.64314 | 34928 ft | 510 kts | 47° |
| 2026-04-25 12:11 | 7.20228 | -70.59178 | 34934 ft | 510 kts | 47° |
| 2026-04-25 12:12 | 7.24340 | -70.54892 | 34938 ft | 511 kts | 47° |
| 2026-04-25 12:12 | 7.30121 | -70.48862 | 34935 ft | 511 kts | 47° |
| 2026-04-25 12:13 | 7.35037 | -70.43731 | 34935 ft | 512 kts | 47° |
| 2026-04-25 12:13 | 7.39995 | -70.38553 | 34935 ft | 512 kts | 47° |
| 2026-04-25 12:14 | 7.44947 | -70.33379 | 34935 ft | 513 kts | 47° |
| 2026-04-25 12:14 | 7.49909 | -70.28194 | 34936 ft | 513 kts | 47° |
| 2026-04-25 12:15 | 7.54876 | -70.23002 | 34955 ft | 514 kts | 47° |
| 2026-04-25 12:15 | 7.59848 | -70.17802 | 34961 ft | 514 kts | 47° |
| 2026-04-25 12:16 | 7.64788 | -70.12635 | 34962 ft | 515 kts | 47° |
| 2026-04-25 12:16 | 7.69768 | -70.07423 | 34970 ft | 515 kts | 47° |
| 2026-04-25 12:17 | 7.74745 | -70.02213 | 34973 ft | 515 kts | 47° |
| 2026-04-25 12:17 | 7.79735 | -69.96986 | 34973 ft | 515 kts | 47° |
| 2026-04-25 12:18 | 7.84714 | -69.91771 | 34973 ft | 515 kts | 47° |
| 2026-04-25 12:18 | 7.89661 | -69.86586 | 34975 ft | 516 kts | 47° |
| 2026-04-25 12:19 | 7.97131 | -69.78754 | 34975 ft | 515 kts | 47° |
| 2026-04-25 12:20 | 8.02112 | -69.73528 | 34974 ft | 515 kts | 47° |
| 2026-04-25 12:20 | 8.07090 | -69.68304 | 34973 ft | 516 kts | 47° |
| 2026-04-25 12:21 | 8.12041 | -69.63106 | 34975 ft | 516 kts | 47° |
| 2026-04-25 12:21 | 8.17019 | -69.57878 | 34975 ft | 515 kts | 47° |
| 2026-04-25 12:22 | 8.21986 | -69.52658 | 34977 ft | 515 kts | 47° |
| 2026-04-25 12:22 | 8.26951 | -69.47440 | 34983 ft | 515 kts | 47° |
| 2026-04-25 12:23 | 8.31921 | -69.42215 | 34986 ft | 515 kts | 47° |
| 2026-04-25 12:23 | 8.36887 | -69.36991 | 35002 ft | 515 kts | 47° |
| 2026-04-25 12:24 | 8.41818 | -69.31803 | 34999 ft | 515 kts | 47° |
| 2026-04-25 12:24 | 8.46785 | -69.26573 | 34993 ft | 514 kts | 47° |
| 2026-04-25 12:25 | 8.51743 | -69.21352 | 35000 ft | 514 kts | 47° |
| 2026-04-25 12:25 | 8.56694 | -69.16136 | 35007 ft | 514 kts | 47° |
| 2026-04-25 12:26 | 8.61649 | -69.10915 | 34999 ft | 514 kts | 47° |
| 2026-04-25 12:26 | 8.66602 | -69.05692 | 35006 ft | 514 kts | 47° |
| 2026-04-25 12:27 | 8.71522 | -69.00503 | 35015 ft | 514 kts | 47° |
| 2026-04-25 12:27 | 8.76474 | -68.95277 | 35011 ft | 514 kts | 47° |
| 2026-04-25 12:28 | 8.81421 | -68.90054 | 35016 ft | 513 kts | 47° |
| 2026-04-25 12:28 | 8.86358 | -68.84840 | 35014 ft | 513 kts | 47° |
| 2026-04-25 12:29 | 8.91303 | -68.79616 | 35013 ft | 513 kts | 47° |
| 2026-04-25 12:29 | 8.96247 | -68.74390 | 35011 ft | 513 kts | 47° |
| 2026-04-25 12:30 | 9.01190 | -68.69164 | 35005 ft | 514 kts | 47° |
| 2026-04-25 12:30 | 9.06136 | -68.63932 | 35019 ft | 514 kts | 47° |
| 2026-04-25 12:31 | 9.11088 | -68.58690 | 35021 ft | 514 kts | 47° |
| 2026-04-25 12:31 | 9.16040 | -68.53448 | 35022 ft | 514 kts | 47° |
| 2026-04-25 12:32 | 9.20991 | -68.48204 | 35022 ft | 515 kts | 47° |
| 2026-04-25 12:32 | 9.25910 | -68.42993 | 35016 ft | 515 kts | 47° |
| 2026-04-25 12:33 | 9.30866 | -68.37738 | 35021 ft | 515 kts | 47° |
| 2026-04-25 12:33 | 9.35829 | -68.32474 | 35022 ft | 516 kts | 47° |
| 2026-04-25 12:34 | 9.40789 | -68.27213 | 35021 ft | 516 kts | 47° |
| 2026-04-25 12:34 | 9.45759 | -68.21935 | 35021 ft | 517 kts | 47° |
| 2026-04-25 12:35 | 9.50744 | -68.16642 | 35020 ft | 517 kts | 47° |
| 2026-04-25 12:35 | 9.55714 | -68.11362 | 35025 ft | 518 kts | 47° |
| 2026-04-25 12:36 | 9.60689 | -68.06073 | 35017 ft | 518 kts | 47° |
| 2026-04-25 12:36 | 9.65665 | -68.00780 | 35013 ft | 518 kts | 47° |
| 2026-04-25 12:37 | 9.70647 | -67.95479 | 35009 ft | 518 kts | 47° |
| 2026-04-25 12:37 | 9.75589 | -67.90220 | 35013 ft | 518 kts | 47° |
| 2026-04-25 12:38 | 9.80566 | -67.84919 | 34998 ft | 518 kts | 47° |
| 2026-04-25 12:38 | 9.85541 | -67.79619 | 35010 ft | 518 kts | 47° |
| 2026-04-25 12:39 | 9.90517 | -67.74315 | 35010 ft | 518 kts | 47° |
| 2026-04-25 12:39 | 9.95488 | -67.69014 | 35013 ft | 518 kts | 47° |
| 2026-04-25 12:40 | 10.00457 | -67.63713 | 35009 ft | 518 kts | 47° |
| 2026-04-25 12:40 | 10.05401 | -67.58434 | 35005 ft | 519 kts | 47° |
| 2026-04-25 12:41 | 10.10382 | -67.53115 | 35006 ft | 519 kts | 47° |
| 2026-04-25 12:41 | 10.15361 | -67.47795 | 34987 ft | 519 kts | 47° |
| 2026-04-25 12:42 | 10.20345 | -67.42468 | 34984 ft | 520 kts | 47° |
| 2026-04-25 12:42 | 10.25328 | -67.37138 | 34977 ft | 520 kts | 47° |
| 2026-04-25 12:43 | 10.30317 | -67.31799 | 34970 ft | 520 kts | 47° |
| 2026-04-25 12:43 | 10.37772 | -67.23818 | 34954 ft | 521 kts | 47° |
| 2026-04-25 12:44 | 10.42767 | -67.18466 | 34946 ft | 521 kts | 47° |
| 2026-04-25 12:45 | 10.50254 | -67.10439 | 34934 ft | 521 kts | 47° |
| 2026-04-25 12:45 | 10.57748 | -67.02388 | 34931 ft | 522 kts | 49° |
| 2026-04-25 12:46 | 10.62384 | -66.96713 | 34928 ft | 521 kts | 55° |
| 2026-04-25 12:46 | 10.65829 | -66.91685 | 34932 ft | 520 kts | 57° |
| 2026-04-25 12:47 | 10.70532 | -66.84578 | 34927 ft | 521 kts | 57° |
| 2026-04-25 12:47 | 10.73929 | -66.79448 | 34935 ft | 521 kts | 57° |
| 2026-04-25 12:48 | 10.77965 | -66.73362 | 34942 ft | 521 kts | 57° |
| 2026-04-25 12:48 | 10.82030 | -66.67235 | 34934 ft | 521 kts | 57° |
| 2026-04-25 12:49 | 10.86093 | -66.61111 | 34934 ft | 521 kts | 58° |
| 2026-04-25 12:49 | 10.90158 | -66.54978 | 34939 ft | 522 kts | 58° |
| 2026-04-25 12:50 | 10.94196 | -66.48883 | 34936 ft | 522 kts | 58° |
| 2026-04-25 12:50 | 10.98258 | -66.42747 | 34935 ft | 522 kts | 58° |
| 2026-04-25 12:51 | 11.02311 | -66.36623 | 34945 ft | 522 kts | 58° |
| 2026-04-25 12:51 | 11.06440 | -66.30506 | 34935 ft | 522 kts | 57° |
| 2026-04-25 12:52 | 11.10588 | -66.24427 | 34935 ft | 522 kts | 57° |
| 2026-04-25 12:52 | 11.14710 | -66.18374 | 34938 ft | 523 kts | 57° |
| 2026-04-25 12:53 | 11.18856 | -66.12271 | 34940 ft | 523 kts | 57° |
| 2026-04-25 12:53 | 11.23007 | -66.06155 | 34934 ft | 523 kts | 57° |
| 2026-04-25 12:54 | 11.27159 | -66.00034 | 34939 ft | 524 kts | 57° |
| 2026-04-25 12:54 | 11.31280 | -65.93957 | 34935 ft | 523 kts | 57° |
| 2026-04-25 12:55 | 11.34746 | -65.88840 | 34935 ft | 523 kts | 57° |
| 2026-04-25 12:55 | 11.39563 | -65.81724 | 34942 ft | 524 kts | 57° |
| 2026-04-25 12:56 | 11.43708 | -65.75597 | 34941 ft | 524 kts | 57° |
| 2026-04-25 12:56 | 11.47845 | -65.69476 | 34944 ft | 524 kts | 57° |
| 2026-04-25 12:57 | 11.51979 | -65.63355 | 34948 ft | 524 kts | 57° |
| 2026-04-25 12:57 | 11.56114 | -65.57229 | 34942 ft | 524 kts | 57° |
| 2026-04-25 12:58 | 11.60221 | -65.51140 | 34949 ft | 524 kts | 57° |
| 2026-04-25 12:58 | 11.64351 | -65.45011 | 34949 ft | 524 kts | 57° |
| 2026-04-25 12:59 | 11.68487 | -65.38888 | 34948 ft | 524 kts | 57° |
| 2026-04-25 12:59 | 11.72694 | -65.32801 | 34949 ft | 524 kts | 57° |
| 2026-04-25 13:00 | 11.76199 | -65.27747 | 34942 ft | 524 kts | 57° |
| 2026-04-25 13:00 | 11.81116 | -65.20639 | 34946 ft | 523 kts | 57° |
| 2026-04-25 13:01 | 11.85325 | -65.14546 | 34948 ft | 523 kts | 57° |
| 2026-04-25 13:01 | 11.89492 | -65.08505 | 34947 ft | 523 kts | 57° |
| 2026-04-25 13:02 | 11.93694 | -65.02412 | 34946 ft | 523 kts | 57° |
| 2026-04-25 13:02 | 11.97891 | -64.96320 | 34950 ft | 523 kts | 57° |
| 2026-04-25 13:03 | 12.02076 | -64.90242 | 34943 ft | 524 kts | 57° |
| 2026-04-25 13:03 | 12.06282 | -64.84127 | 34947 ft | 526 kts | 57° |
| 2026-04-25 13:04 | 12.10497 | -64.77999 | 34949 ft | 526 kts | 57° |
| 2026-04-25 13:04 | 12.14706 | -64.71876 | 34946 ft | 525 kts | 56° |
| 2026-04-25 13:05 | 12.18886 | -64.65792 | 34949 ft | 525 kts | 56° |
| 2026-04-25 13:05 | 12.23086 | -64.59673 | 34951 ft | 525 kts | 57° |
| 2026-04-25 13:06 | 12.27283 | -64.53553 | 34956 ft | 525 kts | 57° |
| 2026-04-25 13:06 | 12.31488 | -64.47419 | 34959 ft | 525 kts | 57° |
| 2026-04-25 13:07 | 12.35687 | -64.41289 | 34963 ft | 525 kts | 57° |
| 2026-04-25 13:07 | 12.39832 | -64.35174 | 34966 ft | 524 kts | 57° |
| 2026-04-25 13:08 | 12.43976 | -64.29023 | 34963 ft | 524 kts | 57° |
| 2026-04-25 13:08 | 12.48124 | -64.22864 | 34965 ft | 525 kts | 57° |
| 2026-04-25 13:09 | 12.52287 | -64.16685 | 34964 ft | 525 kts | 57° |
| 2026-04-25 13:09 | 12.56413 | -64.10560 | 34963 ft | 525 kts | 57° |
| 2026-04-25 13:10 | 12.60560 | -64.04397 | 34966 ft | 525 kts | 57° |
| 2026-04-25 13:10 | 12.64710 | -63.98226 | 34966 ft | 525 kts | 57° |
| 2026-04-25 13:11 | 12.68855 | -63.92058 | 34966 ft | 524 kts | 57° |
| 2026-04-25 13:11 | 12.72973 | -63.85927 | 34966 ft | 524 kts | 57° |
| 2026-04-25 13:12 | 12.77124 | -63.79741 | 34966 ft | 525 kts | 57° |
| 2026-04-25 13:12 | 12.80572 | -63.74599 | 34963 ft | 525 kts | 57° |
| 2026-04-25 13:13 | 12.85386 | -63.67406 | 34965 ft | 526 kts | 56° |
| 2026-04-25 13:13 | 12.89881 | -63.61442 | 34967 ft | 527 kts | 52° |
| 2026-04-25 13:14 | 12.94531 | -63.55662 | 34966 ft | 527 kts | 51° |
| 2026-04-25 13:14 | 12.99211 | -63.49855 | 34964 ft | 527 kts | 52° |
| 2026-04-25 13:15 | 13.03882 | -63.44042 | 34969 ft | 527 kts | 52° |
| 2026-04-25 13:15 | 13.08517 | -63.38266 | 34972 ft | 527 kts | 52° |
| 2026-04-25 13:16 | 13.13187 | -63.32440 | 34974 ft | 528 kts | 52° |
| 2026-04-25 13:16 | 13.17861 | -63.26604 | 34973 ft | 528 kts | 52° |
| 2026-04-25 13:17 | 13.22537 | -63.20762 | 34974 ft | 528 kts | 52° |
| 2026-04-25 13:17 | 13.27191 | -63.14943 | 34975 ft | 528 kts | 52° |
| 2026-04-25 13:18 | 13.31872 | -63.09087 | 34973 ft | 529 kts | 52° |
| 2026-04-25 13:18 | 13.36522 | -63.03266 | 34974 ft | 529 kts | 52° |
| 2026-04-25 13:19 | 13.41190 | -62.97417 | 34973 ft | 529 kts | 52° |
| 2026-04-25 13:19 | 13.44286 | -62.93536 | 34977 ft | 529 kts | 52° |
| 2026-04-25 13:20 | 13.50534 | -62.85698 | 34982 ft | 529 kts | 52° |
| 2026-04-25 13:20 | 13.55185 | -62.79860 | 34983 ft | 530 kts | 52° |
| 2026-04-25 13:21 | 13.59862 | -62.73984 | 34983 ft | 529 kts | 52° |
| 2026-04-25 13:21 | 13.64531 | -62.68115 | 34983 ft | 529 kts | 52° |
| 2026-04-25 13:22 | 13.69184 | -62.62263 | 34983 ft | 530 kts | 52° |
| 2026-04-25 13:23 | 13.76213 | -62.53413 | 34984 ft | 530 kts | 52° |
| 2026-04-25 13:23 | 13.80888 | -62.47523 | 34984 ft | 531 kts | 52° |
| 2026-04-25 13:24 | 13.85562 | -62.41628 | 34984 ft | 531 kts | 52° |
| 2026-04-25 13:24 | 13.90220 | -62.35750 | 34983 ft | 531 kts | 52° |
| 2026-04-25 13:25 | 13.94901 | -62.29839 | 34982 ft | 532 kts | 52° |
| 2026-04-25 13:25 | 13.99563 | -62.23949 | 34984 ft | 532 kts | 52° |
| 2026-04-25 13:26 | 14.04253 | -62.18016 | 34986 ft | 533 kts | 52° |
| 2026-04-25 13:26 | 14.08936 | -62.12091 | 35002 ft | 532 kts | 52° |
| 2026-04-25 13:27 | 14.13618 | -62.06161 | 34999 ft | 532 kts | 52° |
| 2026-04-25 13:27 | 14.18295 | -62.00234 | 35001 ft | 532 kts | 52° |
| 2026-04-25 13:28 | 14.22980 | -61.94292 | 35001 ft | 532 kts | 52° |
| 2026-04-25 13:28 | 14.27621 | -61.88401 | 34994 ft | 533 kts | 52° |
| 2026-04-25 13:29 | 14.32311 | -61.82445 | 34999 ft | 533 kts | 52° |
| 2026-04-25 13:29 | 14.36991 | -61.76496 | 35006 ft | 534 kts | 52° |
| 2026-04-25 13:30 | 14.43991 | -61.67590 | 35005 ft | 534 kts | 52° |
| 2026-04-25 13:31 | 14.51037 | -61.58617 | 35001 ft | 535 kts | 52° |
| 2026-04-25 13:31 | 14.55727 | -61.52638 | 34990 ft | 535 kts | 52° |
| 2026-04-25 13:32 | 14.60385 | -61.46694 | 34999 ft | 535 kts | 52° |
| 2026-04-25 13:32 | 14.65072 | -61.40711 | 35006 ft | 535 kts | 52° |
| 2026-04-25 13:33 | 14.69767 | -61.34712 | 35004 ft | 535 kts | 52° |
| 2026-04-25 13:33 | 14.74460 | -61.28712 | 35007 ft | 536 kts | 52° |
| 2026-04-25 13:34 | 14.79125 | -61.22742 | 34999 ft | 536 kts | 52° |
| 2026-04-25 13:34 | 14.83830 | -61.16714 | 35000 ft | 536 kts | 52° |
| 2026-04-25 13:35 | 14.88493 | -61.10738 | 34998 ft | 536 kts | 52° |
| 2026-04-25 13:35 | 14.92428 | -61.05692 | 35004 ft | 537 kts | 52° |
| 2026-04-25 13:36 | 14.97097 | -60.99701 | 35002 ft | 537 kts | 52° |
| 2026-04-25 13:36 | 15.01795 | -60.93668 | 34999 ft | 538 kts | 52° |
| 2026-04-25 13:37 | 15.06494 | -60.87628 | 34986 ft | 538 kts | 52° |
| 2026-04-25 13:37 | 15.11164 | -60.81619 | 34986 ft | 538 kts | 52° |
| 2026-04-25 13:38 | 15.15864 | -60.75567 | 35004 ft | 538 kts | 52° |
| 2026-04-25 13:38 | 15.20565 | -60.69508 | 35005 ft | 539 kts | 52° |
| 2026-04-25 13:39 | 15.25243 | -60.63476 | 35007 ft | 539 kts | 52° |
| 2026-04-25 13:39 | 15.29945 | -60.57406 | 35003 ft | 539 kts | 52° |
| 2026-04-25 13:40 | 15.34653 | -60.51327 | 35011 ft | 540 kts | 52° |
| 2026-04-25 13:40 | 15.39359 | -60.45242 | 35001 ft | 540 kts | 52° |
| 2026-04-25 13:41 | 15.44073 | -60.39143 | 34986 ft | 541 kts | 52° |
| 2026-04-25 13:41 | 15.48757 | -60.33078 | 34987 ft | 541 kts | 52° |
| 2026-04-25 13:42 | 15.53474 | -60.26966 | 34995 ft | 542 kts | 51° |
| 2026-04-25 13:42 | 15.58196 | -60.20842 | 34988 ft | 542 kts | 51° |
| 2026-04-25 13:43 | 15.62915 | -60.14717 | 35005 ft | 543 kts | 51° |
| 2026-04-25 13:43 | 15.67644 | -60.08574 | 34999 ft | 543 kts | 51° |
| 2026-04-25 13:44 | 15.72363 | -60.02440 | 35003 ft | 543 kts | 51° |
| 2026-04-25 13:44 | 15.77055 | -59.96332 | 35004 ft | 544 kts | 51° |
| 2026-04-25 13:45 | 15.81783 | -59.90176 | 34994 ft | 544 kts | 51° |
| 2026-04-25 13:45 | 15.86509 | -59.84017 | 35007 ft | 544 kts | 51° |
| 2026-04-25 13:46 | 15.91205 | -59.77890 | 35001 ft | 544 kts | 51° |
| 2026-04-25 13:46 | 15.95926 | -59.71727 | 34997 ft | 543 kts | 51° |
| 2026-04-25 13:47 | 16.00638 | -59.65570 | 35005 ft | 543 kts | 52° |
| 2026-04-25 13:47 | 16.05349 | -59.59408 | 35004 ft | 544 kts | 51° |
| 2026-04-25 13:48 | 16.10064 | -59.53235 | 35006 ft | 544 kts | 51° |
| 2026-04-25 13:48 | 16.14787 | -59.47046 | 34996 ft | 544 kts | 51° |
| 2026-04-25 13:49 | 16.19474 | -59.40903 | 35004 ft | 544 kts | 51° |
| 2026-04-25 13:49 | 16.24183 | -59.34728 | 35000 ft | 544 kts | 51° |
| 2026-04-25 13:50 | 16.28888 | -59.28550 | 35001 ft | 543 kts | 51° |
| 2026-04-25 13:50 | 16.33595 | -59.22364 | 35003 ft | 543 kts | 51° |
| 2026-04-25 13:51 | 16.38271 | -59.16214 | 35002 ft | 543 kts | 51° |
| 2026-04-25 13:51 | 16.42973 | -59.10024 | 35000 ft | 543 kts | 51° |
| 2026-04-25 13:52 | 16.47676 | -59.03826 | 34997 ft | 544 kts | 51° |
| 2026-04-25 13:52 | 16.52350 | -58.97662 | 35007 ft | 544 kts | 51° |
| 2026-04-25 13:53 | 16.57053 | -58.91453 | 35004 ft | 544 kts | 51° |
| 2026-04-25 13:53 | 16.61754 | -58.85243 | 34995 ft | 544 kts | 51° |
| 2026-04-25 13:54 | 16.66453 | -58.79029 | 34997 ft | 544 kts | 51° |
| 2026-04-25 13:54 | 16.71120 | -58.72852 | 34994 ft | 544 kts | 51° |
| 2026-04-25 13:55 | 16.75816 | -58.66632 | 35007 ft | 544 kts | 51° |
| 2026-04-25 13:55 | 16.80501 | -58.60419 | 35001 ft | 544 kts | 51° |
| 2026-04-25 13:56 | 16.85165 | -58.54231 | 35000 ft | 544 kts | 51° |
| 2026-04-25 13:56 | 16.89864 | -58.47990 | 34984 ft | 544 kts | 51° |
| 2026-04-25 13:57 | 16.94553 | -58.41754 | 34983 ft | 545 kts | 51° |
| 2026-04-25 13:57 | 16.99222 | -58.35544 | 34983 ft | 545 kts | 51° |
| 2026-04-25 13:58 | 17.03922 | -58.29284 | 34983 ft | 546 kts | 51° |
| 2026-04-25 13:58 | 17.08590 | -58.23062 | 34983 ft | 546 kts | 51° |
| 2026-04-25 13:59 | 17.13301 | -58.16778 | 34983 ft | 547 kts | 51° |
| 2026-04-25 13:59 | 17.17982 | -58.10525 | 34981 ft | 548 kts | 51° |
| 2026-04-25 14:00 | 17.22693 | -58.04228 | 34974 ft | 549 kts | 51° |
| 2026-04-25 14:00 | 17.27401 | -57.97929 | 34974 ft | 549 kts | 51° |
| 2026-04-25 14:01 | 17.32114 | -57.91616 | 34974 ft | 549 kts | 51° |
| 2026-04-25 14:01 | 17.36790 | -57.85350 | 34974 ft | 549 kts | 51° |
| 2026-04-25 14:02 | 17.41512 | -57.79015 | 34974 ft | 549 kts | 51° |
| 2026-04-25 14:02 | 17.46202 | -57.72715 | 34974 ft | 550 kts | 51° |
| 2026-04-25 14:03 | 17.50929 | -57.66360 | 34974 ft | 550 kts | 51° |
| 2026-04-25 14:03 | 17.55612 | -57.60059 | 34974 ft | 550 kts | 51° |
| 2026-04-25 14:04 | 17.60326 | -57.53708 | 34973 ft | 550 kts | 51° |
| 2026-04-25 14:04 | 17.65028 | -57.47368 | 34974 ft | 550 kts | 51° |
| 2026-04-25 14:05 | 17.69747 | -57.41001 | 34974 ft | 550 kts | 51° |
| 2026-04-25 14:05 | 17.74425 | -57.34684 | 34982 ft | 550 kts | 51° |
| 2026-04-25 14:06 | 17.79128 | -57.28326 | 34981 ft | 550 kts | 51° |
| 2026-04-25 14:06 | 17.83820 | -57.21974 | 34983 ft | 549 kts | 51° |
| 2026-04-25 14:07 | 17.88515 | -57.15613 | 34984 ft | 549 kts | 51° |
| 2026-04-25 14:07 | 17.93208 | -57.09249 | 34983 ft | 549 kts | 51° |
| 2026-04-25 14:08 | 17.97778 | -57.02874 | 34982 ft | 548 kts | 54° |
| 2026-04-25 14:08 | 18.01791 | -56.96026 | 34981 ft | 549 kts | 62° |
| 2026-04-25 14:09 | 18.05185 | -56.88785 | 34983 ft | 554 kts | 64° |
| 2026-04-25 14:09 | 18.08485 | -56.81448 | 34983 ft | 553 kts | 64° |
| 2026-04-25 14:10 | 18.11774 | -56.74157 | 34984 ft | 553 kts | 64° |
| 2026-04-25 14:10 | 18.15071 | -56.66870 | 34983 ft | 553 kts | 64° |
| 2026-04-25 14:11 | 18.18389 | -56.59535 | 34985 ft | 553 kts | 64° |
| 2026-04-25 14:11 | 18.21696 | -56.52220 | 34977 ft | 552 kts | 64° |
| 2026-04-25 14:12 | 18.25002 | -56.44901 | 34975 ft | 552 kts | 64° |
| 2026-04-25 14:12 | 18.28278 | -56.37641 | 34976 ft | 552 kts | 64° |
| 2026-04-25 14:13 | 18.31575 | -56.30323 | 34976 ft | 551 kts | 64° |
| 2026-04-25 14:13 | 18.34864 | -56.23014 | 34983 ft | 551 kts | 64° |
| 2026-04-25 14:14 | 18.38154 | -56.15693 | 34982 ft | 551 kts | 64° |
| 2026-04-25 14:14 | 18.41416 | -56.08424 | 34970 ft | 551 kts | 65° |
| 2026-04-25 14:15 | 18.44703 | -56.01091 | 34970 ft | 552 kts | 64° |
| 2026-04-25 14:15 | 18.47981 | -55.93768 | 34973 ft | 551 kts | 64° |
| 2026-04-25 14:16 | 18.51230 | -55.86500 | 34976 ft | 551 kts | 64° |
| 2026-04-25 14:16 | 18.54507 | -55.79162 | 34975 ft | 552 kts | 64° |
| 2026-04-25 14:17 | 18.57778 | -55.71829 | 34974 ft | 552 kts | 64° |
| 2026-04-25 14:17 | 18.61046 | -55.64494 | 34974 ft | 552 kts | 65° |
| 2026-04-25 14:18 | 18.64297 | -55.57187 | 34974 ft | 552 kts | 65° |
| 2026-04-25 14:18 | 18.67565 | -55.49835 | 34969 ft | 553 kts | 65° |
| 2026-04-25 14:19 | 18.70833 | -55.42472 | 34964 ft | 553 kts | 65° |
| 2026-04-25 14:19 | 18.74101 | -55.35101 | 34962 ft | 553 kts | 65° |
| 2026-04-25 14:20 | 18.77367 | -55.27723 | 34966 ft | 553 kts | 65° |
| 2026-04-25 14:20 | 18.80077 | -55.21596 | 34965 ft | 553 kts | 65° |
| 2026-04-25 14:21 | 18.83869 | -55.13008 | 34964 ft | 553 kts | 65° |
| 2026-04-25 14:21 | 18.86574 | -55.06876 | 34964 ft | 554 kts | 65° |
| 2026-04-25 14:22 | 18.89832 | -54.99482 | 34965 ft | 554 kts | 65° |
| 2026-04-25 14:22 | 18.93087 | -54.92084 | 34964 ft | 554 kts | 65° |
| 2026-04-25 14:23 | 18.96345 | -54.84670 | 34962 ft | 554 kts | 65° |
| 2026-04-25 14:23 | 18.99576 | -54.77307 | 34953 ft | 554 kts | 65° |
| 2026-04-25 14:24 | 19.02829 | -54.69886 | 34956 ft | 555 kts | 65° |
| 2026-04-25 14:24 | 19.06078 | -54.62462 | 34954 ft | 555 kts | 65° |
| 2026-04-25 14:25 | 19.09314 | -54.55058 | 34956 ft | 555 kts | 65° |
| 2026-04-25 14:25 | 19.12557 | -54.47628 | 34945 ft | 556 kts | 65° |
| 2026-04-25 14:26 | 19.15814 | -54.40157 | 34944 ft | 556 kts | 65° |
| 2026-04-25 14:26 | 19.19040 | -54.32747 | 34948 ft | 556 kts | 65° |
| 2026-04-25 14:27 | 19.22286 | -54.25281 | 34946 ft | 557 kts | 65° |
| 2026-04-25 14:27 | 19.25516 | -54.17845 | 34947 ft | 557 kts | 65° |
| 2026-04-25 14:28 | 19.28761 | -54.10364 | 34948 ft | 558 kts | 65° |
| 2026-04-25 14:28 | 19.32008 | -54.02867 | 34948 ft | 558 kts | 65° |
| 2026-04-25 14:29 | 19.35230 | -53.95419 | 34950 ft | 559 kts | 65° |
| 2026-04-25 14:29 | 19.38478 | -53.87900 | 34944 ft | 559 kts | 65° |
| 2026-04-25 14:30 | 19.41719 | -53.80387 | 34946 ft | 559 kts | 65° |
| 2026-04-25 14:30 | 19.46555 | -53.69158 | 34947 ft | 559 kts | 65° |
| 2026-04-25 14:31 | 19.49787 | -53.61639 | 34935 ft | 559 kts | 65° |
| 2026-04-25 14:31 | 19.53017 | -53.54118 | 34935 ft | 559 kts | 65° |
| 2026-04-25 14:32 | 19.56243 | -53.46593 | 34935 ft | 559 kts | 65° |
| 2026-04-25 14:32 | 19.59447 | -53.39106 | 34935 ft | 559 kts | 65° |
| 2026-04-25 14:33 | 19.62676 | -53.31558 | 34941 ft | 558 kts | 65° |
| 2026-04-25 14:33 | 19.65864 | -53.24092 | 34936 ft | 558 kts | 65° |
| 2026-04-25 14:34 | 19.69075 | -53.16562 | 34935 ft | 558 kts | 65° |
| 2026-04-25 14:34 | 19.72281 | -53.09035 | 34941 ft | 558 kts | 65° |
| 2026-04-25 14:35 | 19.75478 | -53.01513 | 34936 ft | 557 kts | 65° |
| 2026-04-25 14:35 | 19.78672 | -52.93993 | 34935 ft | 557 kts | 65° |
| 2026-04-25 14:36 | 19.81861 | -52.86476 | 34936 ft | 557 kts | 65° |
| 2026-04-25 14:36 | 19.85027 | -52.78998 | 34936 ft | 557 kts | 65° |
| 2026-04-25 14:37 | 19.88212 | -52.71467 | 34935 ft | 557 kts | 65° |
| 2026-04-25 14:37 | 19.91378 | -52.63970 | 34946 ft | 558 kts | 65° |
| 2026-04-25 14:38 | 19.94555 | -52.56435 | 34970 ft | 558 kts | 65° |
| 2026-04-25 14:38 | 19.97735 | -52.48885 | 34973 ft | 558 kts | 65° |
| 2026-04-25 14:39 | 20.00913 | -52.41330 | 34972 ft | 558 kts | 65° |
| 2026-04-25 14:39 | 20.04087 | -52.33768 | 34978 ft | 560 kts | 65° |
| 2026-04-25 14:40 | 20.07263 | -52.26197 | 34983 ft | 560 kts | 65° |
| 2026-04-25 14:40 | 20.10415 | -52.18669 | 34987 ft | 559 kts | 65° |
| 2026-04-25 14:41 | 20.13585 | -52.11090 | 34994 ft | 559 kts | 65° |
| 2026-04-25 14:41 | 20.16753 | -52.03502 | 35000 ft | 559 kts | 65° |
| 2026-04-25 14:42 | 20.19379 | -51.97205 | 34987 ft | 559 kts | 65° |
| 2026-04-25 14:42 | 20.23051 | -51.88387 | 34985 ft | 559 kts | 65° |
| 2026-04-25 14:43 | 20.26208 | -51.80796 | 34987 ft | 559 kts | 65° |
| 2026-04-25 14:43 | 20.29363 | -51.73196 | 35000 ft | 560 kts | 65° |
| 2026-04-25 14:44 | 20.32496 | -51.65635 | 34992 ft | 560 kts | 65° |
| 2026-04-25 14:44 | 20.35649 | -51.58020 | 34988 ft | 560 kts | 65° |
| 2026-04-25 14:45 | 20.38800 | -51.50397 | 34985 ft | 561 kts | 65° |
| 2026-04-25 14:45 | 20.41929 | -51.42817 | 34987 ft | 561 kts | 65° |
| 2026-04-25 14:46 | 20.45073 | -51.35188 | 34993 ft | 561 kts | 65° |
| 2026-04-25 14:46 | 20.48222 | -51.27537 | 35001 ft | 562 kts | 65° |
| 2026-04-25 14:47 | 20.50839 | -51.21171 | 34986 ft | 562 kts | 65° |
| 2026-04-25 14:47 | 20.54489 | -51.12278 | 34988 ft | 562 kts | 65° |
| 2026-04-25 14:48 | 20.57627 | -51.04616 | 35005 ft | 562 kts | 65° |
| 2026-04-25 14:48 | 20.60760 | -50.96959 | 34992 ft | 562 kts | 65° |
| 2026-04-25 14:49 | 20.63875 | -50.89337 | 34998 ft | 562 kts | 65° |
| 2026-04-25 14:49 | 20.67001 | -50.81672 | 35001 ft | 562 kts | 65° |
| 2026-04-25 14:50 | 20.70128 | -50.73996 | 34998 ft | 562 kts | 65° |
| 2026-04-25 14:50 | 20.73225 | -50.66377 | 34996 ft | 562 kts | 65° |
| 2026-04-25 14:51 | 20.76346 | -50.58691 | 34986 ft | 561 kts | 65° |
| 2026-04-25 14:51 | 20.79459 | -50.51015 | 34999 ft | 562 kts | 65° |
| 2026-04-25 14:52 | 20.82569 | -50.43332 | 34989 ft | 562 kts | 65° |
| 2026-04-25 14:52 | 20.85158 | -50.36928 | 34986 ft | 563 kts | 65° |
| 2026-04-25 14:53 | 20.88769 | -50.27984 | 34985 ft | 563 kts | 65° |
| 2026-04-25 14:53 | 20.91876 | -50.20270 | 34986 ft | 562 kts | 65° |
| 2026-04-25 14:54 | 20.94959 | -50.12602 | 34996 ft | 563 kts | 65° |
| 2026-04-25 14:54 | 20.98059 | -50.04877 | 34998 ft | 563 kts | 66° |
| 2026-04-25 14:55 | 21.00696 | -49.97010 | 34992 ft | 563 kts | 73° |
| 2026-04-25 14:55 | 21.02672 | -49.88870 | 34988 ft | 564 kts | 76° |
| 2026-04-25 14:56 | 21.04541 | -49.80680 | 35001 ft | 565 kts | 76° |
| 2026-04-25 14:56 | 21.06420 | -49.72482 | 34997 ft | 565 kts | 76° |
| 2026-04-25 14:57 | 21.08296 | -49.64335 | 34988 ft | 565 kts | 76° |
| 2026-04-25 14:57 | 21.10182 | -49.56141 | 34991 ft | 565 kts | 76° |
| 2026-04-25 14:58 | 21.12072 | -49.47926 | 34989 ft | 565 kts | 76° |
| 2026-04-25 14:58 | 21.13942 | -49.39778 | 34987 ft | 565 kts | 76° |
| 2026-04-25 14:59 | 21.15819 | -49.31578 | 34999 ft | 565 kts | 76° |
| 2026-04-25 14:59 | 21.17692 | -49.23378 | 34994 ft | 565 kts | 76° |
| 2026-04-25 15:00 | 21.19561 | -49.15171 | 35002 ft | 565 kts | 76° |
| 2026-04-25 15:00 | 21.21414 | -49.07014 | 35003 ft | 565 kts | 76° |
| 2026-04-25 15:01 | 21.23276 | -48.98802 | 35002 ft | 565 kts | 76° |
| 2026-04-25 15:01 | 21.25133 | -48.90597 | 35001 ft | 565 kts | 76° |
| 2026-04-25 15:02 | 21.26977 | -48.82426 | 35004 ft | 566 kts | 76° |
| 2026-04-25 15:02 | 21.28828 | -48.74198 | 35005 ft | 566 kts | 76° |
| 2026-04-25 15:03 | 21.30678 | -48.65962 | 35003 ft | 566 kts | 76° |
| 2026-04-25 15:03 | 21.32510 | -48.57784 | 35003 ft | 566 kts | 76° |
| 2026-04-25 15:04 | 21.34351 | -48.49548 | 35004 ft | 566 kts | 76° |
| 2026-04-25 15:04 | 21.36174 | -48.41367 | 35003 ft | 567 kts | 76° |
| 2026-04-25 15:05 | 21.38010 | -48.33115 | 35006 ft | 567 kts | 76° |
| 2026-04-25 15:06 | 21.40756 | -48.20732 | 34998 ft | 567 kts | 76° |
| 2026-04-25 15:06 | 21.42572 | -48.12517 | 34999 ft | 568 kts | 76° |
| 2026-04-25 15:07 | 21.44398 | -48.04235 | 35001 ft | 568 kts | 76° |
| 2026-04-25 15:07 | 21.46217 | -47.95962 | 34997 ft | 568 kts | 76° |
| 2026-04-25 15:08 | 21.48018 | -47.87743 | 35002 ft | 567 kts | 76° |
| 2026-04-25 15:08 | 21.49830 | -47.79471 | 34997 ft | 567 kts | 76° |
| 2026-04-25 15:09 | 21.51639 | -47.71188 | 35004 ft | 567 kts | 76° |
| 2026-04-25 15:09 | 21.54039 | -47.60165 | 35003 ft | 567 kts | 76° |
| 2026-04-25 15:10 | 21.55838 | -47.51878 | 35001 ft | 568 kts | 76° |
| 2026-04-25 15:11 | 21.58514 | -47.39508 | 34996 ft | 567 kts | 76° |
| 2026-04-25 15:11 | 21.60300 | -47.31218 | 35002 ft | 567 kts | 76° |
| 2026-04-25 15:12 | 21.62964 | -47.18834 | 34999 ft | 567 kts | 76° |
| 2026-04-25 15:12 | 21.64439 | -47.11951 | 35008 ft | 567 kts | 76° |
| 2026-04-25 15:13 | 21.67394 | -46.98120 | 35004 ft | 567 kts | 76° |
| 2026-04-25 15:14 | 21.69151 | -46.89873 | 35007 ft | 568 kts | 76° |
| 2026-04-25 15:14 | 21.70916 | -46.81554 | 35002 ft | 568 kts | 76° |
| 2026-04-25 15:15 | 21.72676 | -46.73245 | 35008 ft | 567 kts | 76° |
| 2026-04-25 15:15 | 21.74418 | -46.65007 | 35003 ft | 566 kts | 76° |
| 2026-04-25 15:16 | 21.76159 | -46.56740 | 35007 ft | 566 kts | 76° |
| 2026-04-25 15:16 | 21.78773 | -46.44301 | 35000 ft | 567 kts | 76° |
| 2026-04-25 15:17 | 21.81369 | -46.31887 | 35000 ft | 567 kts | 76° |
| 2026-04-25 15:18 | 21.83104 | -46.23571 | 34997 ft | 567 kts | 76° |
| 2026-04-25 15:18 | 21.85696 | -46.11104 | 34997 ft | 568 kts | 76° |
| 2026-04-25 15:19 | 21.87119 | -46.04239 | 35001 ft | 568 kts | 76° |
| 2026-04-25 15:19 | 21.89134 | -45.94490 | 35005 ft | 568 kts | 76° |
| 2026-04-25 15:20 | 21.90839 | -45.86212 | 35000 ft | 568 kts | 76° |
| 2026-04-25 15:20 | 21.92554 | -45.77870 | 35006 ft | 568 kts | 76° |
| 2026-04-25 15:21 | 21.94254 | -45.69577 | 35005 ft | 568 kts | 76° |
| 2026-04-25 15:21 | 21.95956 | -45.61249 | 35005 ft | 568 kts | 76° |
| 2026-04-25 15:22 | 21.97653 | -45.52919 | 34999 ft | 567 kts | 76° |
| 2026-04-25 15:22 | 21.99348 | -45.44583 | 34997 ft | 567 kts | 76° |
| 2026-04-25 15:23 | 22.01026 | -45.36310 | 34997 ft | 568 kts | 76° |
| 2026-04-25 15:23 | 22.02715 | -45.27946 | 35007 ft | 570 kts | 76° |
| 2026-04-25 15:24 | 22.04406 | -45.19568 | 34999 ft | 570 kts | 76° |
| 2026-04-25 15:24 | 22.05804 | -45.12609 | 35004 ft | 569 kts | 76° |
| 2026-04-25 15:25 | 22.07757 | -45.02875 | 35003 ft | 570 kts | 75° |
| 2026-04-25 15:25 | 22.09423 | -44.94544 | 35008 ft | 570 kts | 75° |
| 2026-04-25 15:26 | 22.11093 | -44.86169 | 34995 ft | 570 kts | 75° |
| 2026-04-25 15:26 | 22.12761 | -44.77784 | 35003 ft | 570 kts | 75° |
| 2026-04-25 15:27 | 22.14415 | -44.69447 | 35000 ft | 570 kts | 75° |
| 2026-04-25 15:28 | 22.16898 | -44.56878 | 35003 ft | 569 kts | 75° |
| 2026-04-25 15:28 | 22.18548 | -44.48496 | 35005 ft | 569 kts | 75° |
| 2026-04-25 15:29 | 22.20183 | -44.40175 | 35005 ft | 569 kts | 75° |
| 2026-04-25 15:29 | 22.21825 | -44.31792 | 35001 ft | 569 kts | 75° |
| 2026-04-25 15:30 | 22.23464 | -44.23402 | 35003 ft | 568 kts | 76° |
| 2026-04-25 15:30 | 22.25084 | -44.15075 | 35005 ft | 568 kts | 76° |
| 2026-04-25 15:31 | 22.26711 | -44.06695 | 35002 ft | 568 kts | 76° |
| 2026-04-25 15:31 | 22.28332 | -43.98321 | 34999 ft | 568 kts | 76° |
| 2026-04-25 15:32 | 22.29948 | -43.89948 | 35002 ft | 568 kts | 76° |
| 2026-04-25 15:32 | 22.31550 | -43.81627 | 34999 ft | 568 kts | 76° |
| 2026-04-25 15:33 | 22.33959 | -43.69056 | 35000 ft | 569 kts | 76° |
| 2026-04-25 15:33 | 22.35563 | -43.60663 | 35002 ft | 569 kts | 76° |
| 2026-04-25 15:34 | 22.37157 | -43.52304 | 34997 ft | 569 kts | 76° |
| 2026-04-25 15:34 | 22.38483 | -43.45318 | 34998 ft | 569 kts | 76° |
| 2026-04-25 15:35 | 22.41128 | -43.31347 | 35003 ft | 568 kts | 76° |
| 2026-04-25 15:36 | 22.43499 | -43.18755 | 35004 ft | 569 kts | 75° |
| 2026-04-25 15:36 | 22.45067 | -43.10409 | 35001 ft | 569 kts | 76° |
| 2026-04-25 15:37 | 22.46642 | -43.01996 | 34995 ft | 569 kts | 76° |
| 2026-04-25 15:37 | 22.48210 | -42.93596 | 35002 ft | 569 kts | 76° |
| 2026-04-25 15:38 | 22.49762 | -42.85245 | 35003 ft | 568 kts | 75° |
| 2026-04-25 15:38 | 22.51323 | -42.76831 | 35000 ft | 568 kts | 76° |
| 2026-04-25 15:39 | 22.52877 | -42.68433 | 35000 ft | 568 kts | 76° |
| 2026-04-25 15:39 | 22.54415 | -42.60092 | 34998 ft | 568 kts | 76° |
| 2026-04-25 15:40 | 22.55447 | -42.54478 | 34998 ft | 568 kts | 76° |
| 2026-04-25 15:40 | 22.57494 | -42.43303 | 35004 ft | 567 kts | 76° |
| 2026-04-25 15:41 | 22.59029 | -42.34906 | 35005 ft | 567 kts | 76° |
| 2026-04-25 15:41 | 22.60548 | -42.26569 | 34995 ft | 567 kts | 76° |
| 2026-04-25 15:42 | 22.62073 | -42.18167 | 35002 ft | 567 kts | 76° |
| 2026-04-25 15:42 | 22.63593 | -42.09770 | 35005 ft | 567 kts | 76° |
| 2026-04-25 15:43 | 22.65110 | -42.01366 | 35003 ft | 567 kts | 76° |
| 2026-04-25 15:43 | 22.66610 | -41.93018 | 35002 ft | 566 kts | 76° |
| 2026-04-25 15:44 | 22.68116 | -41.84619 | 35007 ft | 566 kts | 76° |
| 2026-04-25 15:44 | 22.69611 | -41.76262 | 35005 ft | 567 kts | 76° |
| 2026-04-25 15:45 | 22.71107 | -41.67868 | 35004 ft | 567 kts | 76° |
| 2026-04-25 15:45 | 22.72107 | -41.62242 | 35004 ft | 566 kts | 76° |
| 2026-04-25 15:46 | 22.74088 | -41.51065 | 35000 ft | 566 kts | 76° |
| 2026-04-25 15:46 | 22.75571 | -41.42661 | 35004 ft | 567 kts | 76° |
| 2026-04-25 15:47 | 22.77043 | -41.34296 | 35007 ft | 567 kts | 76° |
| 2026-04-25 15:47 | 22.78521 | -41.25864 | 35004 ft | 568 kts | 76° |
| 2026-04-25 15:48 | 22.79998 | -41.17418 | 35001 ft | 568 kts | 76° |
| 2026-04-25 15:48 | 22.81458 | -41.09038 | 35002 ft | 568 kts | 76° |
| 2026-04-25 15:49 | 22.82923 | -41.00604 | 35002 ft | 569 kts | 76° |
| 2026-04-25 15:49 | 22.84385 | -40.92160 | 35000 ft | 569 kts | 76° |
| 2026-04-25 15:50 | 22.85845 | -40.83703 | 35002 ft | 569 kts | 76° |
| 2026-04-25 15:50 | 22.87302 | -40.75230 | 34997 ft | 569 kts | 76° |
| 2026-04-25 15:51 | 22.88262 | -40.69632 | 34995 ft | 569 kts | 76° |
| 2026-04-25 15:51 | 22.90191 | -40.58349 | 35003 ft | 569 kts | 76° |
| 2026-04-25 15:52 | 22.91625 | -40.49926 | 35005 ft | 569 kts | 76° |
| 2026-04-25 15:52 | 22.93062 | -40.41455 | 35004 ft | 570 kts | 76° |
| 2026-04-25 15:53 | 22.94496 | -40.32972 | 35007 ft | 570 kts | 76° |
| 2026-04-25 15:53 | 22.95924 | -40.24494 | 35002 ft | 570 kts | 76° |
| 2026-04-25 15:54 | 22.97347 | -40.16010 | 35002 ft | 570 kts | 76° |
| 2026-04-25 15:54 | 22.98548 | -40.07517 | 34994 ft | 572 kts | 82° |
| 2026-04-25 15:55 | 22.98724 | -39.98829 | 35004 ft | 574 kts | 91° |
| 2026-04-25 15:55 | 22.97734 | -39.90245 | 35001 ft | 577 kts | 101° |
| 2026-04-25 15:56 | 22.95806 | -39.81759 | 35002 ft | 578 kts | 105° |
| 2026-04-25 15:56 | 22.93731 | -39.73300 | 34995 ft | 579 kts | 105° |
| 2026-04-25 15:57 | 22.91692 | -39.64874 | 35000 ft | 579 kts | 105° |
| 2026-04-25 15:57 | 22.89662 | -39.56401 | 34985 ft | 579 kts | 105° |
| 2026-04-25 15:58 | 22.87634 | -39.47924 | 34986 ft | 579 kts | 105° |
| 2026-04-25 15:58 | 22.85617 | -39.39509 | 34997 ft | 579 kts | 105° |
| 2026-04-25 15:59 | 22.83578 | -39.31025 | 34992 ft | 579 kts | 105° |
| 2026-04-25 15:59 | 22.81879 | -39.23972 | 34986 ft | 579 kts | 105° |
| 2026-04-25 16:00 | 22.80181 | -39.16938 | 34994 ft | 579 kts | 105° |
| 2026-04-25 16:00 | 22.77795 | -39.07078 | 34993 ft | 580 kts | 105° |
| 2026-04-25 16:01 | 22.75743 | -38.98623 | 35000 ft | 580 kts | 105° |
| 2026-04-25 16:01 | 22.73681 | -38.90147 | 34999 ft | 580 kts | 105° |
| 2026-04-25 16:02 | 22.71614 | -38.81673 | 34998 ft | 580 kts | 105° |
| 2026-04-25 16:02 | 22.69556 | -38.73252 | 34987 ft | 580 kts | 105° |
| 2026-04-25 16:03 | 22.67478 | -38.64774 | 34985 ft | 581 kts | 105° |
| 2026-04-25 16:03 | 22.65410 | -38.56354 | 34987 ft | 581 kts | 105° |
| 2026-04-25 16:04 | 22.63324 | -38.47885 | 34987 ft | 581 kts | 105° |
| 2026-04-25 16:04 | 22.61236 | -38.39425 | 34994 ft | 581 kts | 105° |
| 2026-04-25 16:05 | 22.59137 | -38.30944 | 34996 ft | 581 kts | 105° |
| 2026-04-25 16:06 | 22.55998 | -38.18297 | 34996 ft | 581 kts | 105° |
| 2026-04-25 16:06 | 22.53887 | -38.09815 | 34986 ft | 581 kts | 105° |
| 2026-04-25 16:07 | 22.51785 | -38.01396 | 34985 ft | 581 kts | 105° |
| 2026-04-25 16:07 | 22.49666 | -37.92925 | 34999 ft | 582 kts | 105° |
| 2026-04-25 16:08 | 22.47554 | -37.84503 | 35001 ft | 582 kts | 105° |
| 2026-04-25 16:08 | 22.45422 | -37.76020 | 35001 ft | 582 kts | 105° |
| 2026-04-25 16:09 | 22.43302 | -37.67606 | 34988 ft | 582 kts | 105° |
| 2026-04-25 16:09 | 22.41161 | -37.59129 | 34986 ft | 582 kts | 105° |
| 2026-04-25 16:10 | 22.39019 | -37.50673 | 34987 ft | 582 kts | 105° |
| 2026-04-25 16:10 | 22.36883 | -37.42248 | 35000 ft | 582 kts | 105° |
| 2026-04-25 16:11 | 22.34741 | -37.33826 | 34999 ft | 582 kts | 105° |
| 2026-04-25 16:11 | 22.32588 | -37.25380 | 34998 ft | 583 kts | 105° |
| 2026-04-25 16:12 | 22.30421 | -37.16907 | 35000 ft | 583 kts | 105° |
| 2026-04-25 16:12 | 22.28251 | -37.08433 | 34987 ft | 584 kts | 105° |
| 2026-04-25 16:13 | 22.26092 | -37.00017 | 34986 ft | 584 kts | 105° |
| 2026-04-25 16:13 | 22.23907 | -36.91525 | 34992 ft | 584 kts | 105° |
| 2026-04-25 16:14 | 22.21735 | -36.83106 | 34985 ft | 584 kts | 105° |
| 2026-04-25 16:14 | 22.19548 | -36.74638 | 34984 ft | 584 kts | 105° |
| 2026-04-25 16:15 | 22.17359 | -36.66188 | 34981 ft | 583 kts | 105° |
| 2026-04-25 16:15 | 22.15175 | -36.57780 | 34973 ft | 583 kts | 105° |
| 2026-04-25 16:16 | 22.12974 | -36.49325 | 34973 ft | 583 kts | 105° |
| 2026-04-25 16:16 | 22.10772 | -36.40887 | 34974 ft | 583 kts | 105° |
| 2026-04-25 16:17 | 22.08567 | -36.32458 | 34975 ft | 583 kts | 105° |
| 2026-04-25 16:17 | 22.06356 | -36.24027 | 34974 ft | 582 kts | 105° |
| 2026-04-25 16:18 | 22.04145 | -36.15617 | 34974 ft | 582 kts | 106° |
| 2026-04-25 16:18 | 22.01937 | -36.07244 | 34975 ft | 582 kts | 106° |
| 2026-04-25 16:19 | 21.99616 | -35.98864 | 34973 ft | 582 kts | 109° |
| 2026-04-25 16:19 | 21.96802 | -35.90664 | 34974 ft | 582 kts | 111° |
| 2026-04-25 16:20 | 21.92479 | -35.78472 | 34974 ft | 582 kts | 111° |
| 2026-04-25 16:21 | 21.88144 | -35.66217 | 34974 ft | 582 kts | 111° |
| 2026-04-25 16:21 | 21.85276 | -35.58107 | 34974 ft | 581 kts | 111° |
| 2026-04-25 16:22 | 21.82388 | -35.49950 | 34960 ft | 581 kts | 111° |
| 2026-04-25 16:22 | 21.79496 | -35.41797 | 34926 ft | 580 kts | 111° |
| 2026-04-25 16:23 | 21.76628 | -35.33728 | 34920 ft | 580 kts | 111° |
| 2026-04-25 16:23 | 21.73739 | -35.25616 | 34919 ft | 579 kts | 111° |
| 2026-04-25 16:24 | 21.70841 | -35.17492 | 34918 ft | 579 kts | 111° |
| 2026-04-25 16:24 | 21.67943 | -35.09384 | 34919 ft | 579 kts | 112° |
| 2026-04-25 16:25 | 21.65056 | -35.01322 | 34919 ft | 579 kts | 112° |
| 2026-04-25 16:25 | 21.62144 | -34.93204 | 34911 ft | 579 kts | 112° |
| 2026-04-25 16:26 | 21.59253 | -34.85157 | 34893 ft | 579 kts | 112° |
| 2026-04-25 16:26 | 21.56338 | -34.77056 | 34891 ft | 579 kts | 112° |
| 2026-04-25 16:27 | 21.53416 | -34.68954 | 34891 ft | 579 kts | 112° |
| 2026-04-25 16:27 | 21.50515 | -34.60921 | 34891 ft | 579 kts | 112° |
| 2026-04-25 16:28 | 21.47588 | -34.52831 | 34891 ft | 579 kts | 112° |
| 2026-04-25 16:28 | 21.44657 | -34.44746 | 34891 ft | 579 kts | 112° |
| 2026-04-25 16:29 | 21.41737 | -34.36702 | 34891 ft | 579 kts | 112° |
| 2026-04-25 16:29 | 21.38799 | -34.28623 | 34904 ft | 579 kts | 112° |
| 2026-04-25 16:30 | 21.35857 | -34.20547 | 34924 ft | 579 kts | 112° |
| 2026-04-25 16:30 | 21.32931 | -34.12530 | 34927 ft | 579 kts | 112° |
| 2026-04-25 16:31 | 21.29984 | -34.04467 | 34928 ft | 579 kts | 112° |
| 2026-04-25 16:31 | 21.27032 | -33.96407 | 34927 ft | 578 kts | 112° |
| 2026-04-25 16:32 | 21.24094 | -33.88397 | 34928 ft | 579 kts | 112° |
| 2026-04-25 16:32 | 21.21133 | -33.80338 | 34928 ft | 578 kts | 112° |
| 2026-04-25 16:33 | 21.18190 | -33.72342 | 34928 ft | 578 kts | 112° |
| 2026-04-25 16:33 | 21.15240 | -33.64338 | 34928 ft | 578 kts | 112° |
| 2026-04-25 16:34 | 21.12275 | -33.56310 | 34928 ft | 578 kts | 112° |
| 2026-04-25 16:34 | 21.09306 | -33.48283 | 34928 ft | 577 kts | 112° |
| 2026-04-25 16:35 | 21.06352 | -33.40310 | 34928 ft | 577 kts | 112° |
| 2026-04-25 16:35 | 21.03379 | -33.32298 | 34928 ft | 577 kts | 112° |
| 2026-04-25 16:36 | 21.00403 | -33.24294 | 34928 ft | 577 kts | 112° |
| 2026-04-25 16:36 | 20.97425 | -33.16295 | 34928 ft | 577 kts | 112° |
| 2026-04-25 16:37 | 20.94459 | -33.08344 | 34928 ft | 577 kts | 112° |
| 2026-04-25 16:37 | 20.91471 | -33.00348 | 34929 ft | 577 kts | 112° |
| 2026-04-25 16:38 | 20.88480 | -32.92359 | 34928 ft | 576 kts | 112° |
| 2026-04-25 16:38 | 20.85503 | -32.84418 | 34928 ft | 576 kts | 112° |
| 2026-04-25 16:39 | 20.82507 | -32.76439 | 34928 ft | 576 kts | 112° |
| 2026-04-25 16:39 | 20.79511 | -32.68474 | 34928 ft | 576 kts | 112° |
| 2026-04-25 16:40 | 20.76532 | -32.60563 | 34928 ft | 576 kts | 112° |
| 2026-04-25 16:40 | 20.73525 | -32.52594 | 34928 ft | 576 kts | 113° |
| 2026-04-25 16:41 | 20.70538 | -32.44688 | 34928 ft | 576 kts | 113° |
| 2026-04-25 16:41 | 20.66022 | -32.32768 | 34928 ft | 575 kts | 112° |
| 2026-04-25 16:42 | 20.63018 | -32.24847 | 34928 ft | 575 kts | 112° |
| 2026-04-25 16:42 | 20.60006 | -32.16918 | 34928 ft | 575 kts | 112° |
| 2026-04-25 16:43 | 20.56994 | -32.09006 | 34928 ft | 574 kts | 113° |
| 2026-04-25 16:43 | 20.53977 | -32.01094 | 34928 ft | 574 kts | 113° |
| 2026-04-25 16:44 | 20.50964 | -31.93208 | 34928 ft | 574 kts | 113° |
| 2026-04-25 16:44 | 20.47967 | -31.85376 | 34928 ft | 573 kts | 113° |
| 2026-04-25 16:45 | 20.44947 | -31.77502 | 34928 ft | 573 kts | 113° |
| 2026-04-25 16:45 | 20.41824 | -31.69659 | 34927 ft | 572 kts | 116° |
| 2026-04-25 16:46 | 20.38459 | -31.61946 | 34928 ft | 572 kts | 116° |
| 2026-04-25 16:46 | 20.36214 | -31.56853 | 34928 ft | 572 kts | 116° |
| 2026-04-25 16:47 | 20.31679 | -31.46562 | 34928 ft | 572 kts | 116° |
| 2026-04-25 16:47 | 20.28866 | -31.40179 | 34927 ft | 573 kts | 116° |
| 2026-04-25 16:48 | 20.25472 | -31.32484 | 34928 ft | 573 kts | 116° |
| 2026-04-25 16:48 | 20.21521 | -31.23540 | 34928 ft | 573 kts | 116° |
| 2026-04-25 16:49 | 20.18308 | -31.16276 | 34928 ft | 573 kts | 116° |
| 2026-04-25 16:49 | 20.15459 | -31.09839 | 34928 ft | 572 kts | 116° |
| 2026-04-25 16:50 | 20.12078 | -31.02215 | 34935 ft | 572 kts | 117° |
| 2026-04-25 16:50 | 20.08675 | -30.94554 | 34942 ft | 572 kts | 117° |
| 2026-04-25 16:51 | 20.05267 | -30.86891 | 34935 ft | 571 kts | 117° |
| 2026-04-25 16:51 | 20.02436 | -30.80531 | 34935 ft | 570 kts | 117° |
| 2026-04-25 16:52 | 19.98484 | -30.71668 | 34947 ft | 569 kts | 117° |
| 2026-04-25 16:52 | 19.95101 | -30.64099 | 34935 ft | 565 kts | 116° |
| 2026-04-25 16:53 | 19.90034 | -30.52765 | 34934 ft | 564 kts | 117° |
| 2026-04-25 16:54 | 19.86652 | -30.45217 | 34936 ft | 565 kts | 117° |
| 2026-04-25 16:54 | 19.83269 | -30.37679 | 34934 ft | 565 kts | 117° |
| 2026-04-25 16:55 | 19.79893 | -30.30164 | 34942 ft | 565 kts | 117° |
| 2026-04-25 16:55 | 19.76496 | -30.22614 | 34935 ft | 565 kts | 117° |
| 2026-04-25 16:56 | 19.73098 | -30.15073 | 34935 ft | 565 kts | 117° |
| 2026-04-25 16:56 | 19.69701 | -30.07542 | 34936 ft | 565 kts | 117° |
| 2026-04-25 16:57 | 19.66320 | -30.00058 | 34934 ft | 565 kts | 117° |
| 2026-04-25 16:57 | 19.62913 | -29.92523 | 34943 ft | 565 kts | 117° |
| 2026-04-25 16:58 | 19.59500 | -29.84991 | 34940 ft | 564 kts | 117° |
| 2026-04-25 16:58 | 19.56116 | -29.77534 | 34939 ft | 564 kts | 117° |
| 2026-04-25 16:59 | 19.52708 | -29.70030 | 34934 ft | 563 kts | 117° |
| 2026-04-25 16:59 | 19.49296 | -29.62526 | 34940 ft | 563 kts | 117° |
| 2026-04-25 17:00 | 19.45886 | -29.55038 | 34934 ft | 563 kts | 117° |
| 2026-04-25 17:00 | 19.42497 | -29.47605 | 34943 ft | 562 kts | 117° |
| 2026-04-25 17:01 | 19.39089 | -29.40141 | 34935 ft | 562 kts | 117° |
| 2026-04-25 17:01 | 19.35675 | -29.32675 | 34937 ft | 562 kts | 117° |
| 2026-04-25 17:02 | 19.32261 | -29.25217 | 34935 ft | 562 kts | 117° |
| 2026-04-25 17:02 | 19.28842 | -29.17754 | 34935 ft | 562 kts | 117° |
| 2026-04-25 17:03 | 19.25423 | -29.10305 | 34936 ft | 561 kts | 117° |
| 2026-04-25 17:03 | 19.22010 | -29.02878 | 34935 ft | 561 kts | 117° |
| 2026-04-25 17:04 | 19.18586 | -28.95438 | 34934 ft | 561 kts | 117° |
| 2026-04-25 17:04 | 19.15163 | -28.88010 | 34940 ft | 561 kts | 117° |
| 2026-04-25 17:05 | 19.11736 | -28.80581 | 34932 ft | 561 kts | 117° |
| 2026-04-25 17:05 | 19.06615 | -28.69500 | 34928 ft | 560 kts | 117° |
| 2026-04-25 17:06 | 19.03185 | -28.62089 | 34928 ft | 560 kts | 117° |
| 2026-04-25 17:06 | 18.99756 | -28.54689 | 34927 ft | 559 kts | 117° |
| 2026-04-25 17:07 | 18.96327 | -28.47299 | 34927 ft | 559 kts | 117° |
| 2026-04-25 17:07 | 18.92897 | -28.39913 | 34928 ft | 558 kts | 117° |
| 2026-04-25 17:08 | 18.89467 | -28.32541 | 34928 ft | 558 kts | 117° |
| 2026-04-25 17:08 | 18.86039 | -28.25181 | 34928 ft | 557 kts | 117° |
| 2026-04-25 17:09 | 18.82632 | -28.17877 | 34928 ft | 557 kts | 117° |
| 2026-04-25 17:09 | 18.79211 | -28.10549 | 34928 ft | 556 kts | 117° |
| 2026-04-25 17:10 | 18.75785 | -28.03223 | 34928 ft | 555 kts | 117° |
| 2026-04-25 17:10 | 18.72362 | -27.95906 | 34928 ft | 555 kts | 118° |
| 2026-04-25 17:11 | 18.68939 | -27.88603 | 34928 ft | 554 kts | 118° |
| 2026-04-25 17:11 | 18.65516 | -27.81309 | 34928 ft | 554 kts | 118° |
| 2026-04-25 17:12 | 18.62091 | -27.74021 | 34928 ft | 554 kts | 118° |
| 2026-04-25 17:12 | 18.58683 | -27.66775 | 34928 ft | 553 kts | 118° |
| 2026-04-25 17:13 | 18.56394 | -27.61914 | 34928 ft | 553 kts | 118° |
| 2026-04-25 17:13 | 18.51827 | -27.52225 | 34928 ft | 553 kts | 118° |
| 2026-04-25 17:14 | 18.48394 | -27.44955 | 34927 ft | 553 kts | 118° |
| 2026-04-25 17:14 | 18.44959 | -27.37686 | 34927 ft | 553 kts | 118° |
| 2026-04-25 17:15 | 18.41526 | -27.30432 | 34927 ft | 553 kts | 118° |
| 2026-04-25 17:15 | 18.38084 | -27.23165 | 34927 ft | 553 kts | 118° |
| 2026-04-25 17:16 | 18.34661 | -27.15951 | 34927 ft | 554 kts | 118° |
| 2026-04-25 17:16 | 18.31209 | -27.08684 | 34927 ft | 554 kts | 118° |
| 2026-04-25 17:17 | 18.27758 | -27.01427 | 34928 ft | 554 kts | 118° |
| 2026-04-25 17:17 | 18.24306 | -26.94175 | 34928 ft | 553 kts | 118° |
| 2026-04-25 17:18 | 18.20852 | -26.86930 | 34928 ft | 553 kts | 118° |
| 2026-04-25 17:18 | 18.17400 | -26.79695 | 34928 ft | 552 kts | 118° |
| 2026-04-25 17:19 | 18.13965 | -26.72507 | 34928 ft | 552 kts | 118° |
| 2026-04-25 17:19 | 18.10506 | -26.65276 | 34929 ft | 552 kts | 118° |
| 2026-04-25 17:20 | 18.07050 | -26.58062 | 34928 ft | 551 kts | 118° |
| 2026-04-25 17:20 | 18.03592 | -26.50851 | 34928 ft | 551 kts | 118° |
| 2026-04-25 17:21 | 18.00137 | -26.43652 | 34928 ft | 550 kts | 118° |
| 2026-04-25 17:21 | 17.96684 | -26.36469 | 34928 ft | 548 kts | 118° |
| 2026-04-25 17:22 | 17.94405 | -26.31731 | 34930 ft | 548 kts | 118° |
| 2026-04-25 17:22 | 17.89816 | -26.22206 | 34927 ft | 549 kts | 118° |
| 2026-04-25 17:23 | 17.86358 | -26.15042 | 34927 ft | 549 kts | 118° |
| 2026-04-25 17:23 | 17.82899 | -26.07885 | 34927 ft | 549 kts | 119° |
| 2026-04-25 17:24 | 17.79428 | -26.00736 | 34926 ft | 549 kts | 120° |
| 2026-04-25 17:24 | 17.75795 | -25.93689 | 34928 ft | 548 kts | 121° |
| 2026-04-25 17:25 | 17.72109 | -25.86663 | 34928 ft | 548 kts | 121° |
| 2026-04-25 17:25 | 17.68433 | -25.79638 | 34927 ft | 548 kts | 121° |
| 2026-04-25 17:26 | 17.64771 | -25.72624 | 34927 ft | 547 kts | 121° |
| 2026-04-25 17:26 | 17.61131 | -25.65653 | 34927 ft | 547 kts | 121° |
| 2026-04-25 17:27 | 17.57462 | -25.58633 | 34927 ft | 547 kts | 121° |
| 2026-04-25 17:27 | 17.55006 | -25.53939 | 34927 ft | 547 kts | 121° |
| 2026-04-25 17:28 | 17.50121 | -25.44613 | 34928 ft | 548 kts | 121° |
| 2026-04-25 17:28 | 17.46465 | -25.37641 | 34926 ft | 548 kts | 121° |
| 2026-04-25 17:29 | 17.42789 | -25.30637 | 34926 ft | 547 kts | 121° |
| 2026-04-25 17:29 | 17.39111 | -25.23638 | 34928 ft | 547 kts | 121° |
| 2026-04-25 17:30 | 17.35435 | -25.16649 | 34928 ft | 547 kts | 121° |
| 2026-04-25 17:30 | 17.31763 | -25.09677 | 34930 ft | 547 kts | 121° |
| 2026-04-25 17:31 | 17.28082 | -25.02695 | 34928 ft | 547 kts | 121° |
| 2026-04-25 17:31 | 17.24426 | -24.95767 | 34928 ft | 547 kts | 121° |
| 2026-04-25 17:32 | 17.20743 | -24.88795 | 34928 ft | 547 kts | 121° |
| 2026-04-25 17:32 | 17.17056 | -24.81824 | 34928 ft | 546 kts | 121° |
| 2026-04-25 17:33 | 17.13376 | -24.74872 | 34929 ft | 546 kts | 121° |
| 2026-04-25 17:33 | 17.09690 | -24.67916 | 34930 ft | 546 kts | 121° |
| 2026-04-25 17:34 | 17.06005 | -24.60969 | 34928 ft | 546 kts | 121° |
| 2026-04-25 17:34 | 17.02338 | -24.54064 | 34927 ft | 546 kts | 121° |
| 2026-04-25 17:35 | 16.98648 | -24.47123 | 34927 ft | 546 kts | 121° |
| 2026-04-25 17:35 | 16.94954 | -24.40181 | 34927 ft | 546 kts | 121° |
| 2026-04-25 17:36 | 16.91883 | -24.34416 | 34927 ft | 545 kts | 121° |
| 2026-04-25 17:36 | 16.88190 | -24.27488 | 34927 ft | 545 kts | 121° |
| 2026-04-25 17:37 | 16.84497 | -24.20568 | 34927 ft | 545 kts | 121° |
| 2026-04-25 17:37 | 16.80797 | -24.13642 | 34928 ft | 545 kts | 121° |
| 2026-04-25 17:38 | 16.77729 | -24.07904 | 34927 ft | 544 kts | 121° |
| 2026-04-25 17:38 | 16.73412 | -23.99840 | 34927 ft | 544 kts | 121° |
| 2026-04-25 17:39 | 16.69710 | -23.92931 | 34928 ft | 544 kts | 121° |
| 2026-04-25 17:39 | 16.66008 | -23.86028 | 34928 ft | 544 kts | 121° |
| 2026-04-25 17:40 | 16.62435 | -23.79376 | 34928 ft | 544 kts | 121° |
| 2026-04-25 17:40 | 16.58730 | -23.72482 | 34928 ft | 543 kts | 121° |
| 2026-04-25 17:41 | 16.55025 | -23.65594 | 34928 ft | 543 kts | 121° |
| 2026-04-25 17:41 | 16.51323 | -23.58719 | 34928 ft | 543 kts | 121° |
| 2026-04-25 17:42 | 16.47612 | -23.51836 | 34927 ft | 543 kts | 121° |
| 2026-04-25 17:42 | 16.43899 | -23.44957 | 34927 ft | 543 kts | 121° |
| 2026-04-25 17:43 | 16.40188 | -23.38088 | 34931 ft | 544 kts | 121° |
| 2026-04-25 17:43 | 16.36471 | -23.31213 | 34927 ft | 544 kts | 121° |
| 2026-04-25 17:44 | 16.32780 | -23.24394 | 34927 ft | 544 kts | 121° |
| 2026-04-25 17:44 | 16.29054 | -23.17517 | 34927 ft | 545 kts | 121° |
| 2026-04-25 17:45 | 16.25930 | -23.11758 | 34927 ft | 545 kts | 121° |
| 2026-04-25 17:45 | 16.21594 | -23.03773 | 34928 ft | 545 kts | 121° |
| 2026-04-25 17:46 | 16.17846 | -22.96883 | 34927 ft | 545 kts | 121° |
| 2026-04-25 17:46 | 16.14100 | -22.90001 | 34927 ft | 546 kts | 121° |
| 2026-04-25 17:47 | 16.10396 | -22.83081 | 34928 ft | 547 kts | 120° |
| 2026-04-25 17:47 | 16.06730 | -22.76143 | 34927 ft | 547 kts | 120° |
| 2026-04-25 17:48 | 16.01210 | -22.65736 | 34927 ft | 547 kts | 120° |
| 2026-04-25 17:49 | 15.97548 | -22.58856 | 34931 ft | 546 kts | 120° |
| 2026-04-25 17:49 | 15.93867 | -22.51947 | 34927 ft | 546 kts | 120° |
| 2026-04-25 17:50 | 15.90167 | -22.45008 | 34927 ft | 546 kts | 120° |
| 2026-04-25 17:50 | 15.86472 | -22.38086 | 34928 ft | 546 kts | 120° |
| 2026-04-25 17:51 | 15.82780 | -22.31177 | 34928 ft | 546 kts | 120° |
| 2026-04-25 17:51 | 15.79082 | -22.24265 | 34928 ft | 547 kts | 120° |
| 2026-04-25 17:52 | 15.75380 | -22.17349 | 34927 ft | 547 kts | 120° |
| 2026-04-25 17:52 | 15.71679 | -22.10443 | 34920 ft | 547 kts | 120° |
| 2026-04-25 17:53 | 15.67996 | -22.03575 | 34919 ft | 547 kts | 120° |
| 2026-04-25 17:53 | 15.64293 | -21.96680 | 34918 ft | 547 kts | 120° |
| 2026-04-25 17:54 | 15.60584 | -21.89778 | 34918 ft | 547 kts | 120° |
| 2026-04-25 17:54 | 15.56875 | -21.82886 | 34918 ft | 547 kts | 120° |
| 2026-04-25 17:55 | 15.53160 | -21.75984 | 34919 ft | 547 kts | 120° |
| 2026-04-25 17:55 | 15.49450 | -21.69102 | 34914 ft | 546 kts | 120° |
| 2026-04-25 17:56 | 15.45739 | -21.62223 | 34911 ft | 546 kts | 120° |
| 2026-04-25 17:56 | 15.42024 | -21.55343 | 34909 ft | 545 kts | 120° |
| 2026-04-25 17:57 | 15.38315 | -21.48481 | 34910 ft | 544 kts | 120° |
| 2026-04-25 17:57 | 15.34609 | -21.41630 | 34909 ft | 544 kts | 120° |
| 2026-04-25 17:58 | 15.30903 | -21.34787 | 34910 ft | 543 kts | 120° |
| 2026-04-25 17:58 | 15.27220 | -21.27991 | 34905 ft | 543 kts | 120° |
| 2026-04-25 17:59 | 15.23518 | -21.21168 | 34901 ft | 543 kts | 120° |
| 2026-04-25 17:59 | 15.19813 | -21.14344 | 34900 ft | 542 kts | 120° |
| 2026-04-25 18:00 | 15.16109 | -21.07528 | 34900 ft | 542 kts | 120° |
| 2026-04-25 18:00 | 15.12407 | -21.00721 | 34900 ft | 541 kts | 120° |
| 2026-04-25 18:01 | 15.08698 | -20.93910 | 34899 ft | 541 kts | 120° |
| 2026-04-25 18:01 | 15.04989 | -20.87105 | 34892 ft | 541 kts | 120° |
| 2026-04-25 18:02 | 15.01314 | -20.80367 | 34891 ft | 540 kts | 120° |
| 2026-04-25 18:02 | 14.97611 | -20.73585 | 34891 ft | 540 kts | 120° |
| 2026-04-25 18:03 | 14.93902 | -20.66797 | 34890 ft | 540 kts | 120° |
| 2026-04-25 18:03 | 14.90195 | -20.60020 | 34885 ft | 540 kts | 120° |
| 2026-04-25 18:04 | 14.86496 | -20.53263 | 34875 ft | 539 kts | 120° |
| 2026-04-25 18:04 | 14.82791 | -20.46503 | 34872 ft | 539 kts | 120° |
| 2026-04-25 18:05 | 14.79112 | -20.39797 | 34872 ft | 538 kts | 120° |
| 2026-04-25 18:05 | 14.75409 | -20.33057 | 34866 ft | 538 kts | 120° |
| 2026-04-25 18:06 | 14.71709 | -20.26306 | 34864 ft | 538 kts | 119° |
| 2026-04-25 18:06 | 14.68464 | -20.19336 | 34858 ft | 538 kts | 112° |
| 2026-04-25 18:07 | 14.65915 | -20.12044 | 34849 ft | 538 kts | 108° |
| 2026-04-25 18:07 | 14.63598 | -20.04744 | 34845 ft | 537 kts | 108° |
| 2026-04-25 18:08 | 14.61259 | -19.97391 | 34845 ft | 537 kts | 108° |
| 2026-04-25 18:08 | 14.58911 | -19.90056 | 34837 ft | 537 kts | 108° |
| 2026-04-25 18:09 | 14.56558 | -19.82731 | 34835 ft | 537 kts | 108° |
| 2026-04-25 18:09 | 14.54201 | -19.75407 | 34836 ft | 537 kts | 108° |
| 2026-04-25 18:10 | 14.51839 | -19.68077 | 34835 ft | 537 kts | 108° |
| 2026-04-25 18:10 | 14.49479 | -19.60760 | 34811 ft | 537 kts | 108° |
| 2026-04-25 18:11 | 14.47137 | -19.53509 | 34544 ft | 525 kts | 108° |
| 2026-04-25 18:11 | 14.45998 | -19.49989 | 34291 ft | 521 kts | 108° |
| 2026-04-25 18:11 | 14.44851 | -19.46443 | 34047 ft | 519 kts | 108° |
| 2026-04-25 18:11 | 14.43708 | -19.42911 | 33791 ft | 517 kts | 108° |
| 2026-04-25 18:12 | 14.42568 | -19.39391 | 33542 ft | 515 kts | 108° |
| 2026-04-25 18:12 | 14.41429 | -19.35879 | 33292 ft | 515 kts | 108° |
| 2026-04-25 18:12 | 14.40292 | -19.32373 | 33034 ft | 516 kts | 108° |
| 2026-04-25 18:12 | 14.39149 | -19.28850 | 32787 ft | 517 kts | 108° |
| 2026-04-25 18:13 | 14.38006 | -19.25327 | 32535 ft | 518 kts | 107° |
| 2026-04-25 18:13 | 14.36862 | -19.21803 | 32285 ft | 518 kts | 107° |
| 2026-04-25 18:13 | 14.35713 | -19.18268 | 32033 ft | 519 kts | 107° |
| 2026-04-25 18:14 | 14.33412 | -19.11189 | 31532 ft | 520 kts | 107° |
| 2026-04-25 18:14 | 14.32261 | -19.07648 | 31280 ft | 521 kts | 107° |
| 2026-04-25 18:14 | 14.31105 | -19.04097 | 31029 ft | 521 kts | 107° |
| 2026-04-25 18:14 | 14.29947 | -19.00543 | 30778 ft | 522 kts | 107° |
| 2026-04-25 18:15 | 14.28802 | -18.97025 | 30532 ft | 523 kts | 107° |
| 2026-04-25 18:15 | 14.27623 | -18.93411 | 30275 ft | 523 kts | 107° |
| 2026-04-25 18:15 | 14.26478 | -18.89904 | 30035 ft | 523 kts | 107° |
| 2026-04-25 18:15 | 14.25298 | -18.86292 | 29779 ft | 524 kts | 107° |
| 2026-04-25 18:16 | 14.24152 | -18.82782 | 29523 ft | 524 kts | 107° |
| 2026-04-25 18:16 | 14.22987 | -18.79214 | 29273 ft | 523 kts | 107° |
| 2026-04-25 18:16 | 14.20659 | -18.72095 | 28763 ft | 523 kts | 107° |
| 2026-04-25 18:17 | 14.19497 | -18.68543 | 28505 ft | 522 kts | 107° |
| 2026-04-25 18:17 | 14.18332 | -18.64987 | 28276 ft | 522 kts | 107° |
| 2026-04-25 18:17 | 14.17170 | -18.61440 | 28023 ft | 521 kts | 107° |
| 2026-04-25 18:17 | 14.16006 | -18.57893 | 27767 ft | 520 kts | 108° |
| 2026-04-25 18:18 | 14.14850 | -18.54371 | 27514 ft | 516 kts | 108° |
| 2026-04-25 18:18 | 14.13699 | -18.50868 | 27264 ft | 514 kts | 108° |
| 2026-04-25 18:18 | 14.12554 | -18.47385 | 27007 ft | 511 kts | 108° |
| 2026-04-25 18:18 | 14.11432 | -18.43970 | 26762 ft | 508 kts | 108° |
| 2026-04-25 18:19 | 14.10301 | -18.40531 | 26511 ft | 506 kts | 108° |
| 2026-04-25 18:19 | 14.09172 | -18.37101 | 26261 ft | 503 kts | 108° |
| 2026-04-25 18:19 | 14.08036 | -18.33652 | 26005 ft | 500 kts | 108° |
| 2026-04-25 18:19 | 14.06936 | -18.30315 | 25752 ft | 497 kts | 108° |
| 2026-04-25 18:20 | 14.05821 | -18.26934 | 25507 ft | 494 kts | 108° |
| 2026-04-25 18:20 | 14.04717 | -18.23588 | 25251 ft | 491 kts | 108° |
| 2026-04-25 18:20 | 14.03618 | -18.20262 | 24995 ft | 488 kts | 108° |
| 2026-04-25 18:20 | 14.02525 | -18.16956 | 24750 ft | 486 kts | 108° |
| 2026-04-25 18:21 | 14.01801 | -18.14765 | 24572 ft | 484 kts | 108° |
| 2026-04-25 18:21 | 14.00715 | -18.11485 | 24314 ft | 482 kts | 108° |
| 2026-04-25 18:21 | 13.99638 | -18.08229 | 24091 ft | 479 kts | 109° |
| 2026-04-25 18:21 | 13.98598 | -18.04979 | 23823 ft | 476 kts | 105° |
| 2026-04-25 18:22 | 13.98216 | -18.01609 | 23531 ft | 473 kts | 87° |
| 2026-04-25 18:22 | 13.98507 | -17.99382 | 23368 ft | 471 kts | 76° |
| 2026-04-25 18:22 | 14.00277 | -17.95305 | 23043 ft | 466 kts | 54° |
| 2026-04-25 18:22 | 14.02221 | -17.92629 | 22798 ft | 465 kts | 51° |
| 2026-04-25 18:23 | 14.04185 | -17.89995 | 22541 ft | 463 kts | 51° |
| 2026-04-25 18:23 | 14.06141 | -17.87362 | 22296 ft | 462 kts | 51° |
| 2026-04-25 18:23 | 14.08087 | -17.84731 | 22044 ft | 460 kts | 51° |
| 2026-04-25 18:23 | 14.10018 | -17.82107 | 21792 ft | 459 kts | 52° |
| 2026-04-25 18:24 | 14.11938 | -17.79489 | 21542 ft | 457 kts | 52° |
| 2026-04-25 18:24 | 14.13853 | -17.76870 | 21292 ft | 456 kts | 52° |
| 2026-04-25 18:24 | 14.15610 | -17.74223 | 20962 ft | 451 kts | 61° |
| 2026-04-25 18:24 | 14.16799 | -17.71260 | 20691 ft | 441 kts | 69° |
| 2026-04-25 18:25 | 14.17781 | -17.68292 | 20331 ft | 433 kts | 71° |
| 2026-04-25 18:25 | 14.18735 | -17.65362 | 19955 ft | 425 kts | 70° |
| 2026-04-25 18:25 | 14.19692 | -17.62503 | 19289 ft | 416 kts | 70° |
| 2026-04-25 18:25 | 14.20642 | -17.59744 | 18726 ft | 401 kts | 69° |
| 2026-04-25 18:26 | 14.21574 | -17.57091 | 18234 ft | 386 kts | 69° |
| 2026-04-25 18:26 | 14.22482 | -17.54532 | 17855 ft | 376 kts | 69° |
| 2026-04-25 18:26 | 14.23387 | -17.52003 | 17438 ft | 375 kts | 69° |
| 2026-04-25 18:26 | 14.24292 | -17.49483 | 17044 ft | 373 kts | 69° |
| 2026-04-25 18:27 | 14.25192 | -17.46980 | 16682 ft | 370 kts | 69° |
| 2026-04-25 18:27 | 14.26086 | -17.44493 | 16325 ft | 367 kts | 69° |
| 2026-04-25 18:27 | 14.26956 | -17.42071 | 15841 ft | 361 kts | 69° |
| 2026-04-25 18:27 | 14.27817 | -17.39676 | 15451 ft | 348 kts | 69° |
| 2026-04-25 18:28 | 14.28657 | -17.37337 | 15247 ft | 347 kts | 69° |
| 2026-04-25 18:28 | 14.29496 | -17.35000 | 15068 ft | 346 kts | 69° |
| 2026-04-25 18:28 | 14.30329 | -17.32679 | 14671 ft | 343 kts | 70° |
| 2026-04-25 18:29 | 14.31972 | -17.28100 | 13975 ft | 338 kts | 70° |
| 2026-04-25 18:29 | 14.32785 | -17.25834 | 13636 ft | 336 kts | 70° |
| 2026-04-25 18:30 | 14.31864 | -17.19127 | 12623 ft | 333 kts | 134° |
| 2026-04-25 18:30 | 14.30158 | -17.17526 | 12328 ft | 330 kts | 142° |
| 2026-04-25 18:30 | 14.28357 | -17.16060 | 12002 ft | 328 kts | 143° |
| 2026-04-25 18:30 | 14.26553 | -17.14631 | 11668 ft | 326 kts | 144° |
| 2026-04-25 18:31 | 14.24752 | -17.13214 | 11337 ft | 325 kts | 144° |
| 2026-04-25 18:31 | 14.22947 | -17.11803 | 11014 ft | 324 kts | 144° |
| 2026-04-25 18:31 | 14.21146 | -17.10401 | 10684 ft | 324 kts | 144° |
| 2026-04-25 18:31 | 14.19339 | -17.09002 | 10356 ft | 324 kts | 144° |
| 2026-04-25 18:32 | 14.17533 | -17.07612 | 10028 ft | 324 kts | 144° |
| 2026-04-25 18:32 | 14.15827 | -17.06142 | 9673 ft | 324 kts | 131° |
| 2026-04-25 18:32 | 14.14723 | -17.04152 | 9323 ft | 318 kts | 106° |
| 2026-04-25 18:32 | 14.14505 | -17.01921 | 8982 ft | 311 kts | 82° |
| 2026-04-25 18:33 | 14.14905 | -16.99746 | 8673 ft | 304 kts | 75° |
| 2026-04-25 18:33 | 14.15420 | -16.97638 | 8258 ft | 302 kts | 74° |
| 2026-04-25 18:33 | 14.15954 | -16.95545 | 7824 ft | 301 kts | 74° |
| 2026-04-25 18:33 | 14.16489 | -16.93463 | 7401 ft | 300 kts | 74° |
| 2026-04-25 18:34 | 14.17022 | -16.91385 | 6974 ft | 299 kts | 74° |
| 2026-04-25 18:34 | 14.17551 | -16.89308 | 6548 ft | 297 kts | 74° |
| 2026-04-25 18:34 | 14.18071 | -16.87245 | 6121 ft | 296 kts | 74° |
| 2026-04-25 18:34 | 14.18589 | -16.85189 | 5678 ft | 295 kts | 74° |
| 2026-04-25 18:35 | 14.19096 | -16.83166 | 5274 ft | 294 kts | 74° |
| 2026-04-25 18:35 | 14.19604 | -16.81118 | 4846 ft | 293 kts | 74° |
| 2026-04-25 18:35 | 14.20236 | -16.79132 | 4382 ft | 291 kts | 59° |
| 2026-04-25 18:35 | 14.21547 | -16.77592 | 3943 ft | 285 kts | 32° |
| 2026-04-25 18:36 | 14.23337 | -16.76896 | 3863 ft | 268 kts | 4° |
| 2026-04-25 18:36 | 14.25147 | -16.77166 | 3927 ft | 264 kts | 336° |
| 2026-04-25 18:36 | 14.26561 | -16.78266 | 3927 ft | 250 kts | 307° |
| 2026-04-25 18:36 | 14.27199 | -16.79872 | 3930 ft | 240 kts | 276° |
| 2026-04-25 18:37 | 14.27159 | -16.81596 | 3976 ft | 241 kts | 266° |
| 2026-04-25 18:37 | 14.26952 | -16.83318 | 3974 ft | 241 kts | 264° |
| 2026-04-25 18:37 | 14.26716 | -16.85007 | 3971 ft | 240 kts | 265° |
| 2026-04-25 18:37 | 14.26722 | -16.86716 | 3967 ft | 238 kts | 280° |
| 2026-04-25 18:38 | 14.26994 | -16.88403 | 3976 ft | 238 kts | 283° |
| 2026-04-25 18:38 | 14.27318 | -16.90075 | 3970 ft | 238 kts | 284° |
| 2026-04-25 18:38 | 14.27652 | -16.91711 | 3957 ft | 228 kts | 289° |
| 2026-04-25 18:38 | 14.28274 | -16.93192 | 3873 ft | 224 kts | 301° |
| 2026-04-25 18:39 | 14.29063 | -16.94577 | 3744 ft | 222 kts | 303° |
| 2026-04-25 18:39 | 14.29855 | -16.95946 | 3618 ft | 222 kts | 303° |
| 2026-04-25 18:39 | 14.30630 | -16.97320 | 3504 ft | 221 kts | 302° |
| 2026-04-25 18:39 | 14.31389 | -16.98700 | 3371 ft | 221 kts | 302° |
| 2026-04-25 18:40 | 14.32139 | -17.00080 | 3243 ft | 220 kts | 302° |
| 2026-04-25 18:40 | 14.32880 | -17.01461 | 3116 ft | 220 kts | 302° |
| 2026-04-25 18:40 | 14.33617 | -17.02842 | 2992 ft | 219 kts | 302° |
| 2026-04-25 18:40 | 14.34351 | -17.04219 | 2992 ft | 219 kts | 302° |
| 2026-04-25 18:41 | 14.35093 | -17.05596 | 2981 ft | 219 kts | 308° |
| 2026-04-25 18:41 | 14.36227 | -17.06592 | 2977 ft | 217 kts | 338° |
| 2026-04-25 18:41 | 14.37663 | -17.06980 | 3001 ft | 213 kts | 354° |
| 2026-04-25 18:41 | 14.39133 | -17.07068 | 2994 ft | 207 kts | 359° |
| 2026-04-25 18:42 | 14.40530 | -17.07077 | 3025 ft | 201 kts | 360° |
| 2026-04-25 18:42 | 14.41475 | -17.07076 | 3031 ft | 200 kts | 360° |
| 2026-04-25 18:42 | 14.43229 | -17.07080 | 2973 ft | 181 kts | 360° |
| 2026-04-25 18:42 | 14.44485 | -17.07086 | 2982 ft | 180 kts | 359° |
| 2026-04-25 18:43 | 14.45732 | -17.07095 | 2985 ft | 179 kts | 359° |
| 2026-04-25 18:43 | 14.46980 | -17.07105 | 2988 ft | 179 kts | 359° |
| 2026-04-25 18:43 | 14.48229 | -17.07116 | 2983 ft | 179 kts | 359° |
| 2026-04-25 18:43 | 14.49477 | -17.07127 | 2989 ft | 180 kts | 359° |
| 2026-04-25 18:44 | 14.50728 | -17.07138 | 2999 ft | 179 kts | 359° |
| 2026-04-25 18:44 | 14.51945 | -17.07149 | 2911 ft | 171 kts | 359° |
| 2026-04-25 18:44 | 14.53125 | -17.07159 | 2695 ft | 169 kts | 359° |
| 2026-04-25 18:44 | 14.54279 | -17.07169 | 2473 ft | 167 kts | 359° |
| 2026-04-25 18:45 | 14.55423 | -17.07179 | 2236 ft | 158 kts | 359° |
| 2026-04-25 18:45 | 14.56486 | -17.07189 | 2029 ft | 154 kts | 359° |
| 2026-04-25 18:45 | 14.57553 | -17.07198 | 1838 ft | 153 kts | 359° |
| 2026-04-25 18:45 | 14.58592 | -17.07207 | 1632 ft | 146 kts | 359° |
| 2026-04-25 18:46 | 14.59599 | -17.07216 | 1448 ft | 144 kts | 358° |
| 2026-04-25 18:46 | 14.60599 | -17.07225 | 1272 ft | 143 kts | 358° |
| 2026-04-25 18:46 | 14.61593 | -17.07234 | 1073 ft | 143 kts | 358° |
| 2026-04-25 18:46 | 14.62592 | -17.07247 | 846 ft | 143 kts | 358° |
| 2026-04-25 18:47 | 14.63586 | -17.07263 | 635 ft | 143 kts | 360° |
| 2026-04-25 18:47 | 14.64579 | -17.07258 | 476 ft | 143 kts | 359° |
| 2026-04-25 18:47 | 14.65579 | -17.07266 | 321 ft | 144 kts | 359° |
| 2026-04-25 18:47 | 14.66459 | -17.07274 | 302 ft | 96 kts | 358° |
| 2026-04-25 18:48 | 14.66893 | -17.07280 | 308 ft | 34 kts | 359° |
| 2026-04-25 18:48 | 14.67048 | -17.07248 | 308 ft | 15 kts | 54° |
| 2026-04-25 18:48 | 14.67073 | -17.07176 | 305 ft | 4 kts | 85° |
| 2026-04-25 18:48 | 14.67074 | -17.07171 | 305 ft | 1 kts | 85° |
| 2026-04-25 18:49 | 14.67074 | -17.07166 | 305 ft | 0 kts | 85° |
| 2026-04-25 18:49 | 14.67085 | -17.07124 | 306 ft | 10 kts | 62° |
| 2026-04-25 18:49 | 14.67151 | -17.07092 | 306 ft | 13 kts | 5° |
| 2026-04-25 18:49 | 14.67248 | -17.07093 | 303 ft | 13 kts | 358° |
| 2026-04-25 18:50 | 14.67303 | -17.07094 | 302 ft | 2 kts | 359° |
| 2026-04-25 18:50 | 14.67309 | -17.07095 | 302 ft | 4 kts | 359° |
| 2026-04-25 18:50 | 14.67356 | -17.07095 | 304 ft | 9 kts | 359° |
| 2026-04-25 18:51 | 14.67436 | -17.07097 | 304 ft | 13 kts | 360° |
| 2026-04-25 18:51 | 14.67469 | -17.07095 | 303 ft | 13 kts | 8° |
| 2026-04-25 18:51 | 14.67542 | -17.07036 | 300 ft | 10 kts | 76° |
| 2026-04-25 18:51 | 14.67591 | -17.06983 | 302 ft | 13 kts | 8° |
| 2026-04-25 18:52 | 14.67696 | -17.06984 | 301 ft | 16 kts | 359° |
| 2026-04-25 18:52 | 14.67802 | -17.06983 | 301 ft | 11 kts | 359° |
| 2026-04-25 18:52 | 14.67850 | -17.06962 | 296 ft | 7 kts | 58° |
| 2026-04-25 18:52 | 14.67857 | -17.06944 | 299 ft | 5 kts | 78° |
| 2026-04-25 18:53 | 14.67849 | -17.06902 | 300 ft | 5 kts | 95° |
| 2026-04-25 18:53 | 14.67849 | -17.06893 | 298 ft | 0 kts | 92° |